<?xml version="1.0" encoding="UTF-8" standalone="no" ?>
<gpx xmlns="http://www.topografix.com/GPX/1/1" xmlns:xsi="http://www.w3.org/2001/XMLSchema-instance" xsi:schemaLocation="http://www.topografix.com/GPX/1/1 http://www.topografix.com/GPX/1/1/gpx.xsd" version="1.1" creator="VisuGPX - https://www.visugpx.com">
  <metadata>
    <name>Villers La Ville</name>
    <desc><![CDATA[Rando en boucle de 10km650]]></desc>
  </metadata>
  <trk>
    <name><![CDATA[Villers La Ville]]></name>
    <desc><![CDATA[Training repérage]]></desc>
    <trkseg>
      <trkpt lat="50.58873" lon="4.53032">
        <ele>93.5</ele>
        <time>2015-06-01T07:40:39.000Z</time>
      </trkpt>
      <trkpt lat="50.58872" lon="4.53033">
        <ele>93.5</ele>
        <time>2015-06-01T07:40:40.000Z</time>
      </trkpt>
      <trkpt lat="50.58877" lon="4.53039">
        <ele>93.8</ele>
        <time>2015-06-01T07:40:48.000Z</time>
      </trkpt>
      <trkpt lat="50.58884" lon="4.53032">
        <ele>93.8</ele>
        <time>2015-06-01T07:40:56.000Z</time>
      </trkpt>
      <trkpt lat="50.5889" lon="4.53038">
        <ele>94</ele>
        <time>2015-06-01T07:41:01.000Z</time>
      </trkpt>
      <trkpt lat="50.58916" lon="4.53041">
        <ele>93</ele>
        <time>2015-06-01T07:41:05.000Z</time>
      </trkpt>
      <trkpt lat="50.58921" lon="4.53042">
        <ele>93.1</ele>
        <time>2015-06-01T07:41:07.000Z</time>
      </trkpt>
      <trkpt lat="50.58922" lon="4.53041">
        <ele>93.1</ele>
        <time>2015-06-01T07:41:13.000Z</time>
      </trkpt>
      <trkpt lat="50.58926" lon="4.53047">
        <ele>93.4</ele>
        <time>2015-06-01T07:41:43.000Z</time>
      </trkpt>
      <trkpt lat="50.58923" lon="4.53065">
        <ele>94.3</ele>
        <time>2015-06-01T07:41:49.000Z</time>
      </trkpt>
      <trkpt lat="50.58916" lon="4.53085">
        <ele>96.2</ele>
        <time>2015-06-01T07:41:57.000Z</time>
      </trkpt>
      <trkpt lat="50.58909" lon="4.53104">
        <ele>98.4</ele>
        <time>2015-06-01T07:42:06.000Z</time>
      </trkpt>
      <trkpt lat="50.589" lon="4.53111">
        <ele>98.2</ele>
        <time>2015-06-01T07:42:13.000Z</time>
      </trkpt>
      <trkpt lat="50.58894" lon="4.53131">
        <ele>98.3</ele>
        <time>2015-06-01T07:42:17.000Z</time>
      </trkpt>
      <trkpt lat="50.58893" lon="4.53136">
        <ele>98.4</ele>
        <time>2015-06-01T07:42:21.000Z</time>
      </trkpt>
      <trkpt lat="50.58892" lon="4.53144">
        <ele>98.8</ele>
        <time>2015-06-01T07:42:29.000Z</time>
      </trkpt>
      <trkpt lat="50.58889" lon="4.53163">
        <ele>99.7</ele>
        <time>2015-06-01T07:42:40.000Z</time>
      </trkpt>
      <trkpt lat="50.58887" lon="4.53182">
        <ele>101.4</ele>
        <time>2015-06-01T07:42:48.000Z</time>
      </trkpt>
      <trkpt lat="50.58886" lon="4.53195">
        <ele>102.3</ele>
        <time>2015-06-01T07:42:55.000Z</time>
      </trkpt>
      <trkpt lat="50.58882" lon="4.53198">
        <ele>102.9</ele>
        <time>2015-06-01T07:43:00.000Z</time>
      </trkpt>
      <trkpt lat="50.58878" lon="4.53215">
        <ele>104.1</ele>
        <time>2015-06-01T07:43:06.000Z</time>
      </trkpt>
      <trkpt lat="50.58875" lon="4.53232">
        <ele>105</ele>
        <time>2015-06-01T07:43:11.000Z</time>
      </trkpt>
      <trkpt lat="50.58866" lon="4.53237">
        <ele>105.1</ele>
        <time>2015-06-01T07:43:18.000Z</time>
      </trkpt>
      <trkpt lat="50.58863" lon="4.53236">
        <ele>105</ele>
        <time>2015-06-01T07:43:20.000Z</time>
      </trkpt>
      <trkpt lat="50.58861" lon="4.53226">
        <ele>105.2</ele>
        <time>2015-06-01T07:43:27.000Z</time>
      </trkpt>
      <trkpt lat="50.5886" lon="4.53224">
        <ele>105.5</ele>
        <time>2015-06-01T07:43:28.000Z</time>
      </trkpt>
      <trkpt lat="50.58857" lon="4.53221">
        <ele>106.8</ele>
        <time>2015-06-01T07:43:34.000Z</time>
      </trkpt>
      <trkpt lat="50.58855" lon="4.53218">
        <ele>107.7</ele>
        <time>2015-06-01T07:43:37.000Z</time>
      </trkpt>
      <trkpt lat="50.58855" lon="4.53214">
        <ele>107.8</ele>
        <time>2015-06-01T07:43:40.000Z</time>
      </trkpt>
      <trkpt lat="50.58853" lon="4.53211">
        <ele>108.8</ele>
        <time>2015-06-01T07:43:43.000Z</time>
      </trkpt>
      <trkpt lat="50.58851" lon="4.53209">
        <ele>109.4</ele>
        <time>2015-06-01T07:43:45.000Z</time>
      </trkpt>
      <trkpt lat="50.58848" lon="4.53205">
        <ele>110.7</ele>
        <time>2015-06-01T07:43:49.000Z</time>
      </trkpt>
      <trkpt lat="50.58844" lon="4.532">
        <ele>111.9</ele>
        <time>2015-06-01T07:43:54.000Z</time>
      </trkpt>
      <trkpt lat="50.58841" lon="4.53192">
        <ele>113.1</ele>
        <time>2015-06-01T07:44:01.000Z</time>
      </trkpt>
      <trkpt lat="50.58833" lon="4.53184">
        <ele>115.9</ele>
        <time>2015-06-01T07:44:08.000Z</time>
      </trkpt>
      <trkpt lat="50.58832" lon="4.53181">
        <ele>116.2</ele>
        <time>2015-06-01T07:44:11.000Z</time>
      </trkpt>
      <trkpt lat="50.5883" lon="4.53178">
        <ele>116.4</ele>
        <time>2015-06-01T07:44:15.000Z</time>
      </trkpt>
      <trkpt lat="50.58822" lon="4.53172">
        <ele>117.1</ele>
        <time>2015-06-01T07:44:22.000Z</time>
      </trkpt>
      <trkpt lat="50.58815" lon="4.53165">
        <ele>117.2</ele>
        <time>2015-06-01T07:44:29.000Z</time>
      </trkpt>
      <trkpt lat="50.58814" lon="4.53165">
        <ele>117.3</ele>
        <time>2015-06-01T07:44:30.000Z</time>
      </trkpt>
      <trkpt lat="50.58809" lon="4.53161">
        <ele>117.4</ele>
        <time>2015-06-01T07:44:35.000Z</time>
      </trkpt>
      <trkpt lat="50.58797" lon="4.53161">
        <ele>118.2</ele>
        <time>2015-06-01T07:44:44.000Z</time>
      </trkpt>
      <trkpt lat="50.58788" lon="4.53157">
        <ele>118.3</ele>
        <time>2015-06-01T07:44:51.000Z</time>
      </trkpt>
      <trkpt lat="50.5878" lon="4.53156">
        <ele>118.7</ele>
        <time>2015-06-01T07:44:56.000Z</time>
      </trkpt>
      <trkpt lat="50.58772" lon="4.53155">
        <ele>118.7</ele>
        <time>2015-06-01T07:45:01.000Z</time>
      </trkpt>
      <trkpt lat="50.5876" lon="4.53157">
        <ele>119</ele>
        <time>2015-06-01T07:45:10.000Z</time>
      </trkpt>
      <trkpt lat="50.58752" lon="4.53161">
        <ele>119.3</ele>
        <time>2015-06-01T07:45:16.000Z</time>
      </trkpt>
      <trkpt lat="50.5875" lon="4.53162">
        <ele>119.5</ele>
        <time>2015-06-01T07:45:17.000Z</time>
      </trkpt>
      <trkpt lat="50.58747" lon="4.53163">
        <ele>119.5</ele>
        <time>2015-06-01T07:45:20.000Z</time>
      </trkpt>
      <trkpt lat="50.58742" lon="4.53164">
        <ele>119.5</ele>
        <time>2015-06-01T07:45:24.000Z</time>
      </trkpt>
      <trkpt lat="50.5874" lon="4.53166">
        <ele>119.5</ele>
        <time>2015-06-01T07:45:26.000Z</time>
      </trkpt>
      <trkpt lat="50.5873" lon="4.53169">
        <ele>119.6</ele>
        <time>2015-06-01T07:45:33.000Z</time>
      </trkpt>
      <trkpt lat="50.58727" lon="4.53169">
        <ele>119.5</ele>
        <time>2015-06-01T07:45:36.000Z</time>
      </trkpt>
      <trkpt lat="50.58722" lon="4.53171">
        <ele>119.6</ele>
        <time>2015-06-01T07:45:39.000Z</time>
      </trkpt>
      <trkpt lat="50.58712" lon="4.53172">
        <ele>119.4</ele>
        <time>2015-06-01T07:45:45.000Z</time>
      </trkpt>
      <trkpt lat="50.58704" lon="4.53176">
        <ele>119.5</ele>
        <time>2015-06-01T07:45:51.000Z</time>
      </trkpt>
      <trkpt lat="50.58696" lon="4.53179">
        <ele>119.4</ele>
        <time>2015-06-01T07:45:56.000Z</time>
      </trkpt>
      <trkpt lat="50.58695" lon="4.53178">
        <ele>119.3</ele>
        <time>2015-06-01T07:45:57.000Z</time>
      </trkpt>
      <trkpt lat="50.5869" lon="4.53182">
        <ele>119.4</ele>
        <time>2015-06-01T07:46:02.000Z</time>
      </trkpt>
      <trkpt lat="50.58686" lon="4.53184">
        <ele>119.4</ele>
        <time>2015-06-01T07:46:06.000Z</time>
      </trkpt>
      <trkpt lat="50.58675" lon="4.5319">
        <ele>119.7</ele>
        <time>2015-06-01T07:46:13.000Z</time>
      </trkpt>
      <trkpt lat="50.58671" lon="4.53192">
        <ele>119.8</ele>
        <time>2015-06-01T07:46:15.000Z</time>
      </trkpt>
      <trkpt lat="50.58669" lon="4.53191">
        <ele>119.6</ele>
        <time>2015-06-01T07:46:18.000Z</time>
      </trkpt>
      <trkpt lat="50.58663" lon="4.53195">
        <ele>120</ele>
        <time>2015-06-01T07:46:24.000Z</time>
      </trkpt>
      <trkpt lat="50.58661" lon="4.53197">
        <ele>120.2</ele>
        <time>2015-06-01T07:46:25.000Z</time>
      </trkpt>
      <trkpt lat="50.58648" lon="4.532">
        <ele>120.2</ele>
        <time>2015-06-01T07:46:33.000Z</time>
      </trkpt>
      <trkpt lat="50.5864" lon="4.53201">
        <ele>120.1</ele>
        <time>2015-06-01T07:46:38.000Z</time>
      </trkpt>
      <trkpt lat="50.58634" lon="4.53201">
        <ele>119.9</ele>
        <time>2015-06-01T07:46:45.000Z</time>
      </trkpt>
      <trkpt lat="50.58628" lon="4.53203">
        <ele>120.1</ele>
        <time>2015-06-01T07:46:50.000Z</time>
      </trkpt>
      <trkpt lat="50.58627" lon="4.53203">
        <ele>120.1</ele>
        <time>2015-06-01T07:46:51.000Z</time>
      </trkpt>
      <trkpt lat="50.58617" lon="4.53208">
        <ele>120.5</ele>
        <time>2015-06-01T07:46:57.000Z</time>
      </trkpt>
      <trkpt lat="50.58605" lon="4.53212">
        <ele>120.8</ele>
        <time>2015-06-01T07:47:06.000Z</time>
      </trkpt>
      <trkpt lat="50.58598" lon="4.53214">
        <ele>121</ele>
        <time>2015-06-01T07:47:12.000Z</time>
      </trkpt>
      <trkpt lat="50.58598" lon="4.53215">
        <ele>121.1</ele>
        <time>2015-06-01T07:47:13.000Z</time>
      </trkpt>
      <trkpt lat="50.5859" lon="4.53219">
        <ele>121.5</ele>
        <time>2015-06-01T07:47:19.000Z</time>
      </trkpt>
      <trkpt lat="50.5858" lon="4.53222">
        <ele>121.8</ele>
        <time>2015-06-01T07:47:24.000Z</time>
      </trkpt>
      <trkpt lat="50.58579" lon="4.53223">
        <ele>121.7</ele>
        <time>2015-06-01T07:47:25.000Z</time>
      </trkpt>
      <trkpt lat="50.58574" lon="4.53225">
        <ele>121.6</ele>
        <time>2015-06-01T07:47:29.000Z</time>
      </trkpt>
      <trkpt lat="50.58563" lon="4.53232">
        <ele>121.6</ele>
        <time>2015-06-01T07:47:37.000Z</time>
      </trkpt>
      <trkpt lat="50.58556" lon="4.53239">
        <ele>121.8</ele>
        <time>2015-06-01T07:47:42.000Z</time>
      </trkpt>
      <trkpt lat="50.58553" lon="4.53242">
        <ele>121.9</ele>
        <time>2015-06-01T07:47:45.000Z</time>
      </trkpt>
      <trkpt lat="50.58545" lon="4.53246">
        <ele>121.9</ele>
        <time>2015-06-01T07:47:52.000Z</time>
      </trkpt>
      <trkpt lat="50.5854" lon="4.5325">
        <ele>121.9</ele>
        <time>2015-06-01T07:47:56.000Z</time>
      </trkpt>
      <trkpt lat="50.58532" lon="4.53258">
        <ele>122.4</ele>
        <time>2015-06-01T07:48:03.000Z</time>
      </trkpt>
      <trkpt lat="50.58525" lon="4.53266">
        <ele>123.2</ele>
        <time>2015-06-01T07:48:08.000Z</time>
      </trkpt>
      <trkpt lat="50.58513" lon="4.53275">
        <ele>124.1</ele>
        <time>2015-06-01T07:48:16.000Z</time>
      </trkpt>
      <trkpt lat="50.58509" lon="4.53278">
        <ele>124.3</ele>
        <time>2015-06-01T07:48:19.000Z</time>
      </trkpt>
      <trkpt lat="50.58498" lon="4.53288">
        <ele>125.4</ele>
        <time>2015-06-01T07:48:26.000Z</time>
      </trkpt>
      <trkpt lat="50.58493" lon="4.53291">
        <ele>126.4</ele>
        <time>2015-06-01T07:48:31.000Z</time>
      </trkpt>
      <trkpt lat="50.58492" lon="4.53292">
        <ele>126.6</ele>
        <time>2015-06-01T07:48:32.000Z</time>
      </trkpt>
      <trkpt lat="50.58486" lon="4.53295">
        <ele>127.9</ele>
        <time>2015-06-01T07:48:38.000Z</time>
      </trkpt>
      <trkpt lat="50.58479" lon="4.53298">
        <ele>129.2</ele>
        <time>2015-06-01T07:48:43.000Z</time>
      </trkpt>
      <trkpt lat="50.58473" lon="4.53302">
        <ele>130.5</ele>
        <time>2015-06-01T07:48:48.000Z</time>
      </trkpt>
      <trkpt lat="50.58469" lon="4.53303">
        <ele>130.9</ele>
        <time>2015-06-01T07:48:52.000Z</time>
      </trkpt>
      <trkpt lat="50.58464" lon="4.53307">
        <ele>131.7</ele>
        <time>2015-06-01T07:48:57.000Z</time>
      </trkpt>
      <trkpt lat="50.58461" lon="4.53312">
        <ele>132.2</ele>
        <time>2015-06-01T07:49:03.000Z</time>
      </trkpt>
      <trkpt lat="50.58455" lon="4.53317">
        <ele>133</ele>
        <time>2015-06-01T07:49:09.000Z</time>
      </trkpt>
      <trkpt lat="50.58448" lon="4.53326">
        <ele>134.2</ele>
        <time>2015-06-01T07:49:14.000Z</time>
      </trkpt>
      <trkpt lat="50.58442" lon="4.53329">
        <ele>134.6</ele>
        <time>2015-06-01T07:49:19.000Z</time>
      </trkpt>
      <trkpt lat="50.58435" lon="4.53334">
        <ele>134.7</ele>
        <time>2015-06-01T07:49:23.000Z</time>
      </trkpt>
      <trkpt lat="50.58426" lon="4.53342">
        <ele>134.7</ele>
        <time>2015-06-01T07:49:29.000Z</time>
      </trkpt>
      <trkpt lat="50.58425" lon="4.5335">
        <ele>134.9</ele>
        <time>2015-06-01T07:49:35.000Z</time>
      </trkpt>
      <trkpt lat="50.58424" lon="4.53362">
        <ele>135.3</ele>
        <time>2015-06-01T07:49:40.000Z</time>
      </trkpt>
      <trkpt lat="50.58427" lon="4.53373">
        <ele>136.1</ele>
        <time>2015-06-01T07:49:45.000Z</time>
      </trkpt>
      <trkpt lat="50.58427" lon="4.53376">
        <ele>136.2</ele>
        <time>2015-06-01T07:49:46.000Z</time>
      </trkpt>
      <trkpt lat="50.5843" lon="4.53389">
        <ele>137</ele>
        <time>2015-06-01T07:49:52.000Z</time>
      </trkpt>
      <trkpt lat="50.58432" lon="4.53398">
        <ele>137.5</ele>
        <time>2015-06-01T07:49:58.000Z</time>
      </trkpt>
      <trkpt lat="50.5844" lon="4.53403">
        <ele>138</ele>
        <time>2015-06-01T07:50:04.000Z</time>
      </trkpt>
      <trkpt lat="50.58447" lon="4.53414">
        <ele>138.6</ele>
        <time>2015-06-01T07:50:11.000Z</time>
      </trkpt>
      <trkpt lat="50.58455" lon="4.53425">
        <ele>138.5</ele>
        <time>2015-06-01T07:50:18.000Z</time>
      </trkpt>
      <trkpt lat="50.58458" lon="4.53434">
        <ele>138.6</ele>
        <time>2015-06-01T07:50:23.000Z</time>
      </trkpt>
      <trkpt lat="50.58461" lon="4.53441">
        <ele>138.9</ele>
        <time>2015-06-01T07:50:28.000Z</time>
      </trkpt>
      <trkpt lat="50.58469" lon="4.53443">
        <ele>138.9</ele>
        <time>2015-06-01T07:50:34.000Z</time>
      </trkpt>
      <trkpt lat="50.58474" lon="4.5344">
        <ele>138.7</ele>
        <time>2015-06-01T07:50:37.000Z</time>
      </trkpt>
      <trkpt lat="50.58481" lon="4.53436">
        <ele>138.5</ele>
        <time>2015-06-01T07:50:42.000Z</time>
      </trkpt>
      <trkpt lat="50.58483" lon="4.53434">
        <ele>138.4</ele>
        <time>2015-06-01T07:50:45.000Z</time>
      </trkpt>
      <trkpt lat="50.5849" lon="4.53428">
        <ele>138.2</ele>
        <time>2015-06-01T07:50:50.000Z</time>
      </trkpt>
      <trkpt lat="50.58492" lon="4.53427">
        <ele>138.2</ele>
        <time>2015-06-01T07:50:52.000Z</time>
      </trkpt>
      <trkpt lat="50.58502" lon="4.53432">
        <ele>138.6</ele>
        <time>2015-06-01T07:50:58.000Z</time>
      </trkpt>
      <trkpt lat="50.58511" lon="4.53441">
        <ele>139.3</ele>
        <time>2015-06-01T07:51:04.000Z</time>
      </trkpt>
      <trkpt lat="50.58517" lon="4.53449">
        <ele>139.7</ele>
        <time>2015-06-01T07:51:09.000Z</time>
      </trkpt>
      <trkpt lat="50.58523" lon="4.53463">
        <ele>139.9</ele>
        <time>2015-06-01T07:51:15.000Z</time>
      </trkpt>
      <trkpt lat="50.58525" lon="4.53471">
        <ele>140</ele>
        <time>2015-06-01T07:51:19.000Z</time>
      </trkpt>
      <trkpt lat="50.58526" lon="4.53477">
        <ele>140.2</ele>
        <time>2015-06-01T07:51:23.000Z</time>
      </trkpt>
      <trkpt lat="50.58531" lon="4.53489">
        <ele>140.6</ele>
        <time>2015-06-01T07:51:29.000Z</time>
      </trkpt>
      <trkpt lat="50.58535" lon="4.53497">
        <ele>140.9</ele>
        <time>2015-06-01T07:51:33.000Z</time>
      </trkpt>
      <trkpt lat="50.58535" lon="4.53507">
        <ele>141.2</ele>
        <time>2015-06-01T07:51:37.000Z</time>
      </trkpt>
      <trkpt lat="50.58541" lon="4.53519">
        <ele>141.7</ele>
        <time>2015-06-01T07:51:43.000Z</time>
      </trkpt>
      <trkpt lat="50.58544" lon="4.53525">
        <ele>141.9</ele>
        <time>2015-06-01T07:51:46.000Z</time>
      </trkpt>
      <trkpt lat="50.58555" lon="4.5354">
        <ele>142</ele>
        <time>2015-06-01T07:51:55.000Z</time>
      </trkpt>
      <trkpt lat="50.58565" lon="4.5355">
        <ele>142</ele>
        <time>2015-06-01T07:52:01.000Z</time>
      </trkpt>
      <trkpt lat="50.58573" lon="4.53561">
        <ele>142.1</ele>
        <time>2015-06-01T07:52:09.000Z</time>
      </trkpt>
      <trkpt lat="50.58581" lon="4.5356">
        <ele>142</ele>
        <time>2015-06-01T07:52:14.000Z</time>
      </trkpt>
      <trkpt lat="50.58587" lon="4.53557">
        <ele>141.9</ele>
        <time>2015-06-01T07:52:19.000Z</time>
      </trkpt>
      <trkpt lat="50.58595" lon="4.53552">
        <ele>141.6</ele>
        <time>2015-06-01T07:52:25.000Z</time>
      </trkpt>
      <trkpt lat="50.58598" lon="4.53551">
        <ele>141.5</ele>
        <time>2015-06-01T07:52:27.000Z</time>
      </trkpt>
      <trkpt lat="50.58608" lon="4.53551">
        <ele>141.1</ele>
        <time>2015-06-01T07:52:34.000Z</time>
      </trkpt>
      <trkpt lat="50.58618" lon="4.5355">
        <ele>140.8</ele>
        <time>2015-06-01T07:52:40.000Z</time>
      </trkpt>
      <trkpt lat="50.5862" lon="4.5355">
        <ele>140.7</ele>
        <time>2015-06-01T07:52:42.000Z</time>
      </trkpt>
      <trkpt lat="50.58629" lon="4.53549">
        <ele>140.4</ele>
        <time>2015-06-01T07:52:48.000Z</time>
      </trkpt>
      <trkpt lat="50.58639" lon="4.53547">
        <ele>140</ele>
        <time>2015-06-01T07:52:54.000Z</time>
      </trkpt>
      <trkpt lat="50.58647" lon="4.53546">
        <ele>139.5</ele>
        <time>2015-06-01T07:52:59.000Z</time>
      </trkpt>
      <trkpt lat="50.58655" lon="4.53545">
        <ele>139.1</ele>
        <time>2015-06-01T07:53:04.000Z</time>
      </trkpt>
      <trkpt lat="50.58661" lon="4.53544">
        <ele>138.8</ele>
        <time>2015-06-01T07:53:08.000Z</time>
      </trkpt>
      <trkpt lat="50.58662" lon="4.53544">
        <ele>138.7</ele>
        <time>2015-06-01T07:53:09.000Z</time>
      </trkpt>
      <trkpt lat="50.58672" lon="4.53543">
        <ele>138.1</ele>
        <time>2015-06-01T07:53:15.000Z</time>
      </trkpt>
      <trkpt lat="50.58673" lon="4.53543">
        <ele>138</ele>
        <time>2015-06-01T07:53:16.000Z</time>
      </trkpt>
      <trkpt lat="50.5868" lon="4.5354">
        <ele>137.6</ele>
        <time>2015-06-01T07:53:22.000Z</time>
      </trkpt>
      <trkpt lat="50.58684" lon="4.5354">
        <ele>137.4</ele>
        <time>2015-06-01T07:53:24.000Z</time>
      </trkpt>
      <trkpt lat="50.58691" lon="4.53539">
        <ele>137</ele>
        <time>2015-06-01T07:53:29.000Z</time>
      </trkpt>
      <trkpt lat="50.58692" lon="4.53539">
        <ele>136.9</ele>
        <time>2015-06-01T07:53:30.000Z</time>
      </trkpt>
      <trkpt lat="50.58701" lon="4.53538">
        <ele>136.4</ele>
        <time>2015-06-01T07:53:36.000Z</time>
      </trkpt>
      <trkpt lat="50.58709" lon="4.53535">
        <ele>136.2</ele>
        <time>2015-06-01T07:53:40.000Z</time>
      </trkpt>
      <trkpt lat="50.58718" lon="4.53532">
        <ele>135.9</ele>
        <time>2015-06-01T07:53:45.000Z</time>
      </trkpt>
      <trkpt lat="50.58719" lon="4.53531">
        <ele>135.9</ele>
        <time>2015-06-01T07:53:46.000Z</time>
      </trkpt>
      <trkpt lat="50.58727" lon="4.53519">
        <ele>135.9</ele>
        <time>2015-06-01T07:53:53.000Z</time>
      </trkpt>
      <trkpt lat="50.58732" lon="4.53511">
        <ele>135.9</ele>
        <time>2015-06-01T07:53:58.000Z</time>
      </trkpt>
      <trkpt lat="50.58737" lon="4.53507">
        <ele>135.7</ele>
        <time>2015-06-01T07:54:04.000Z</time>
      </trkpt>
      <trkpt lat="50.58739" lon="4.53508">
        <ele>135.5</ele>
        <time>2015-06-01T07:54:06.000Z</time>
      </trkpt>
      <trkpt lat="50.58746" lon="4.53511">
        <ele>134.9</ele>
        <time>2015-06-01T07:54:11.000Z</time>
      </trkpt>
      <trkpt lat="50.58755" lon="4.53515">
        <ele>133.5</ele>
        <time>2015-06-01T07:54:19.000Z</time>
      </trkpt>
      <trkpt lat="50.58761" lon="4.5352">
        <ele>132</ele>
        <time>2015-06-01T07:54:25.000Z</time>
      </trkpt>
      <trkpt lat="50.58766" lon="4.53524">
        <ele>130.8</ele>
        <time>2015-06-01T07:54:30.000Z</time>
      </trkpt>
      <trkpt lat="50.58771" lon="4.53529">
        <ele>129.5</ele>
        <time>2015-06-01T07:54:34.000Z</time>
      </trkpt>
      <trkpt lat="50.58782" lon="4.53536">
        <ele>127.4</ele>
        <time>2015-06-01T07:54:41.000Z</time>
      </trkpt>
      <trkpt lat="50.58791" lon="4.53538">
        <ele>125.3</ele>
        <time>2015-06-01T07:54:47.000Z</time>
      </trkpt>
      <trkpt lat="50.58793" lon="4.53542">
        <ele>124.9</ele>
        <time>2015-06-01T07:54:51.000Z</time>
      </trkpt>
      <trkpt lat="50.58799" lon="4.5355">
        <ele>123.5</ele>
        <time>2015-06-01T07:54:56.000Z</time>
      </trkpt>
      <trkpt lat="50.58804" lon="4.53554">
        <ele>122.4</ele>
        <time>2015-06-01T07:54:59.000Z</time>
      </trkpt>
      <trkpt lat="50.58814" lon="4.53564">
        <ele>122.2</ele>
        <time>2015-06-01T07:55:06.000Z</time>
      </trkpt>
      <trkpt lat="50.58826" lon="4.53571">
        <ele>122.1</ele>
        <time>2015-06-01T07:55:14.000Z</time>
      </trkpt>
      <trkpt lat="50.58837" lon="4.53576">
        <ele>122.6</ele>
        <time>2015-06-01T07:55:22.000Z</time>
      </trkpt>
      <trkpt lat="50.58844" lon="4.5358">
        <ele>123.5</ele>
        <time>2015-06-01T07:55:27.000Z</time>
      </trkpt>
      <trkpt lat="50.58846" lon="4.53582">
        <ele>123.8</ele>
        <time>2015-06-01T07:55:29.000Z</time>
      </trkpt>
      <trkpt lat="50.58854" lon="4.53587">
        <ele>125.1</ele>
        <time>2015-06-01T07:55:36.000Z</time>
      </trkpt>
      <trkpt lat="50.58858" lon="4.53591">
        <ele>126.1</ele>
        <time>2015-06-01T07:55:41.000Z</time>
      </trkpt>
      <trkpt lat="50.58866" lon="4.53596">
        <ele>127.7</ele>
        <time>2015-06-01T07:55:46.000Z</time>
      </trkpt>
      <trkpt lat="50.58872" lon="4.53599">
        <ele>129</ele>
        <time>2015-06-01T07:55:51.000Z</time>
      </trkpt>
      <trkpt lat="50.58875" lon="4.53599">
        <ele>129.6</ele>
        <time>2015-06-01T07:55:54.000Z</time>
      </trkpt>
      <trkpt lat="50.58882" lon="4.53604">
        <ele>130.8</ele>
        <time>2015-06-01T07:56:01.000Z</time>
      </trkpt>
      <trkpt lat="50.58889" lon="4.53607">
        <ele>132</ele>
        <time>2015-06-01T07:56:07.000Z</time>
      </trkpt>
      <trkpt lat="50.58897" lon="4.53612">
        <ele>132.6</ele>
        <time>2015-06-01T07:56:14.000Z</time>
      </trkpt>
      <trkpt lat="50.58904" lon="4.53616">
        <ele>133.2</ele>
        <time>2015-06-01T07:56:19.000Z</time>
      </trkpt>
      <trkpt lat="50.58913" lon="4.53622">
        <ele>134.1</ele>
        <time>2015-06-01T07:56:26.000Z</time>
      </trkpt>
      <trkpt lat="50.58924" lon="4.53633">
        <ele>135.1</ele>
        <time>2015-06-01T07:56:35.000Z</time>
      </trkpt>
      <trkpt lat="50.58934" lon="4.53642">
        <ele>135.7</ele>
        <time>2015-06-01T07:56:43.000Z</time>
      </trkpt>
      <trkpt lat="50.58946" lon="4.53648">
        <ele>136.4</ele>
        <time>2015-06-01T07:56:51.000Z</time>
      </trkpt>
      <trkpt lat="50.58957" lon="4.53657">
        <ele>136.8</ele>
        <time>2015-06-01T07:57:00.000Z</time>
      </trkpt>
      <trkpt lat="50.58965" lon="4.53662">
        <ele>137</ele>
        <time>2015-06-01T07:57:06.000Z</time>
      </trkpt>
      <trkpt lat="50.58976" lon="4.5367">
        <ele>137.2</ele>
        <time>2015-06-01T07:57:14.000Z</time>
      </trkpt>
      <trkpt lat="50.58985" lon="4.53677">
        <ele>137.6</ele>
        <time>2015-06-01T07:57:21.000Z</time>
      </trkpt>
      <trkpt lat="50.58993" lon="4.53684">
        <ele>137.9</ele>
        <time>2015-06-01T07:57:28.000Z</time>
      </trkpt>
      <trkpt lat="50.59004" lon="4.53689">
        <ele>138.1</ele>
        <time>2015-06-01T07:57:35.000Z</time>
      </trkpt>
      <trkpt lat="50.59017" lon="4.53698">
        <ele>138.7</ele>
        <time>2015-06-01T07:57:45.000Z</time>
      </trkpt>
      <trkpt lat="50.59026" lon="4.53704">
        <ele>139</ele>
        <time>2015-06-01T07:57:52.000Z</time>
      </trkpt>
      <trkpt lat="50.59041" lon="4.53714">
        <ele>139</ele>
        <time>2015-06-01T07:58:02.000Z</time>
      </trkpt>
      <trkpt lat="50.59053" lon="4.53722">
        <ele>139</ele>
        <time>2015-06-01T07:58:11.000Z</time>
      </trkpt>
      <trkpt lat="50.5906" lon="4.53727">
        <ele>139</ele>
        <time>2015-06-01T07:58:16.000Z</time>
      </trkpt>
      <trkpt lat="50.59071" lon="4.53735">
        <ele>139</ele>
        <time>2015-06-01T07:58:25.000Z</time>
      </trkpt>
      <trkpt lat="50.59082" lon="4.53742">
        <ele>139</ele>
        <time>2015-06-01T07:58:32.000Z</time>
      </trkpt>
      <trkpt lat="50.59089" lon="4.53747">
        <ele>139</ele>
        <time>2015-06-01T07:58:39.000Z</time>
      </trkpt>
      <trkpt lat="50.59094" lon="4.5375">
        <ele>139</ele>
        <time>2015-06-01T07:58:43.000Z</time>
      </trkpt>
      <trkpt lat="50.591" lon="4.53754">
        <ele>139</ele>
        <time>2015-06-01T07:58:48.000Z</time>
      </trkpt>
      <trkpt lat="50.59111" lon="4.53762">
        <ele>139</ele>
        <time>2015-06-01T07:58:56.000Z</time>
      </trkpt>
      <trkpt lat="50.59125" lon="4.53771">
        <ele>138.6</ele>
        <time>2015-06-01T07:59:05.000Z</time>
      </trkpt>
      <trkpt lat="50.59137" lon="4.53777">
        <ele>138.1</ele>
        <time>2015-06-01T07:59:13.000Z</time>
      </trkpt>
      <trkpt lat="50.59143" lon="4.53783">
        <ele>138</ele>
        <time>2015-06-01T07:59:19.000Z</time>
      </trkpt>
      <trkpt lat="50.59153" lon="4.53787">
        <ele>137.8</ele>
        <time>2015-06-01T07:59:28.000Z</time>
      </trkpt>
      <trkpt lat="50.59162" lon="4.53785">
        <ele>137.8</ele>
        <time>2015-06-01T07:59:34.000Z</time>
      </trkpt>
      <trkpt lat="50.59181" lon="4.53793">
        <ele>136.9</ele>
        <time>2015-06-01T08:00:13.000Z</time>
      </trkpt>
      <trkpt lat="50.59182" lon="4.53798">
        <ele>136.7</ele>
        <time>2015-06-01T08:00:17.000Z</time>
      </trkpt>
      <trkpt lat="50.59185" lon="4.53802">
        <ele>136.4</ele>
        <time>2015-06-01T08:00:21.000Z</time>
      </trkpt>
      <trkpt lat="50.59195" lon="4.53808">
        <ele>135.9</ele>
        <time>2015-06-01T08:00:28.000Z</time>
      </trkpt>
      <trkpt lat="50.59197" lon="4.53811">
        <ele>135.5</ele>
        <time>2015-06-01T08:00:30.000Z</time>
      </trkpt>
      <trkpt lat="50.59205" lon="4.53814">
        <ele>134.5</ele>
        <time>2015-06-01T08:00:36.000Z</time>
      </trkpt>
      <trkpt lat="50.59206" lon="4.53815">
        <ele>134.4</ele>
        <time>2015-06-01T08:00:37.000Z</time>
      </trkpt>
      <trkpt lat="50.59214" lon="4.53821">
        <ele>133.3</ele>
        <time>2015-06-01T08:00:43.000Z</time>
      </trkpt>
      <trkpt lat="50.59223" lon="4.53825">
        <ele>132.3</ele>
        <time>2015-06-01T08:00:49.000Z</time>
      </trkpt>
      <trkpt lat="50.59232" lon="4.53833">
        <ele>130.9</ele>
        <time>2015-06-01T08:00:56.000Z</time>
      </trkpt>
      <trkpt lat="50.59241" lon="4.53837">
        <ele>130</ele>
        <time>2015-06-01T08:01:02.000Z</time>
      </trkpt>
      <trkpt lat="50.59246" lon="4.53838">
        <ele>129.5</ele>
        <time>2015-06-01T08:01:05.000Z</time>
      </trkpt>
      <trkpt lat="50.59251" lon="4.53845">
        <ele>128.8</ele>
        <time>2015-06-01T08:01:10.000Z</time>
      </trkpt>
      <trkpt lat="50.59258" lon="4.53852">
        <ele>127.6</ele>
        <time>2015-06-01T08:01:16.000Z</time>
      </trkpt>
      <trkpt lat="50.59264" lon="4.53855">
        <ele>126.3</ele>
        <time>2015-06-01T08:01:22.000Z</time>
      </trkpt>
      <trkpt lat="50.5927" lon="4.5386">
        <ele>124.8</ele>
        <time>2015-06-01T08:01:28.000Z</time>
      </trkpt>
      <trkpt lat="50.59276" lon="4.53866">
        <ele>123.7</ele>
        <time>2015-06-01T08:01:33.000Z</time>
      </trkpt>
      <trkpt lat="50.59283" lon="4.53869">
        <ele>122.7</ele>
        <time>2015-06-01T08:01:38.000Z</time>
      </trkpt>
      <trkpt lat="50.5929" lon="4.53877">
        <ele>121.6</ele>
        <time>2015-06-01T08:01:45.000Z</time>
      </trkpt>
      <trkpt lat="50.59298" lon="4.5387">
        <ele>120.2</ele>
        <time>2015-06-01T08:01:51.000Z</time>
      </trkpt>
      <trkpt lat="50.59306" lon="4.53864">
        <ele>119.6</ele>
        <time>2015-06-01T08:01:56.000Z</time>
      </trkpt>
      <trkpt lat="50.59317" lon="4.5386">
        <ele>117.6</ele>
        <time>2015-06-01T08:02:01.000Z</time>
      </trkpt>
      <trkpt lat="50.59322" lon="4.53852">
        <ele>117.5</ele>
        <time>2015-06-01T08:02:08.000Z</time>
      </trkpt>
      <trkpt lat="50.59323" lon="4.53851">
        <ele>117.5</ele>
        <time>2015-06-01T08:02:09.000Z</time>
      </trkpt>
      <trkpt lat="50.59328" lon="4.53847">
        <ele>116.8</ele>
        <time>2015-06-01T08:02:14.000Z</time>
      </trkpt>
      <trkpt lat="50.5933" lon="4.53846">
        <ele>116.6</ele>
        <time>2015-06-01T08:02:15.000Z</time>
      </trkpt>
      <trkpt lat="50.59333" lon="4.53843">
        <ele>116.1</ele>
        <time>2015-06-01T08:02:19.000Z</time>
      </trkpt>
      <trkpt lat="50.59342" lon="4.53832">
        <ele>114.5</ele>
        <time>2015-06-01T08:02:26.000Z</time>
      </trkpt>
      <trkpt lat="50.59347" lon="4.53822">
        <ele>113.8</ele>
        <time>2015-06-01T08:02:31.000Z</time>
      </trkpt>
      <trkpt lat="50.59349" lon="4.53818">
        <ele>113.3</ele>
        <time>2015-06-01T08:02:34.000Z</time>
      </trkpt>
      <trkpt lat="50.59357" lon="4.53805">
        <ele>111.7</ele>
        <time>2015-06-01T08:02:40.000Z</time>
      </trkpt>
      <trkpt lat="50.59365" lon="4.53794">
        <ele>110.5</ele>
        <time>2015-06-01T08:02:47.000Z</time>
      </trkpt>
      <trkpt lat="50.59367" lon="4.53786">
        <ele>110.8</ele>
        <time>2015-06-01T08:02:51.000Z</time>
      </trkpt>
      <trkpt lat="50.59373" lon="4.53776">
        <ele>109.7</ele>
        <time>2015-06-01T08:02:56.000Z</time>
      </trkpt>
      <trkpt lat="50.5938" lon="4.53766">
        <ele>109.7</ele>
        <time>2015-06-01T08:03:02.000Z</time>
      </trkpt>
      <trkpt lat="50.59385" lon="4.53758">
        <ele>110.1</ele>
        <time>2015-06-01T08:03:08.000Z</time>
      </trkpt>
      <trkpt lat="50.59392" lon="4.53751">
        <ele>110</ele>
        <time>2015-06-01T08:03:14.000Z</time>
      </trkpt>
      <trkpt lat="50.59398" lon="4.53747">
        <ele>109.6</ele>
        <time>2015-06-01T08:03:20.000Z</time>
      </trkpt>
      <trkpt lat="50.59401" lon="4.53745">
        <ele>109.4</ele>
        <time>2015-06-01T08:03:22.000Z</time>
      </trkpt>
      <trkpt lat="50.5941" lon="4.53734">
        <ele>109.9</ele>
        <time>2015-06-01T08:03:29.000Z</time>
      </trkpt>
      <trkpt lat="50.59414" lon="4.53724">
        <ele>111.1</ele>
        <time>2015-06-01T08:03:34.000Z</time>
      </trkpt>
      <trkpt lat="50.59422" lon="4.53718">
        <ele>110.2</ele>
        <time>2015-06-01T08:03:41.000Z</time>
      </trkpt>
      <trkpt lat="50.59428" lon="4.53731">
        <ele>107.1</ele>
        <time>2015-06-01T08:03:48.000Z</time>
      </trkpt>
      <trkpt lat="50.59428" lon="4.53746">
        <ele>106.1</ele>
        <time>2015-06-01T08:03:54.000Z</time>
      </trkpt>
      <trkpt lat="50.59425" lon="4.53758">
        <ele>106.6</ele>
        <time>2015-06-01T08:04:00.000Z</time>
      </trkpt>
      <trkpt lat="50.59425" lon="4.53761">
        <ele>107</ele>
        <time>2015-06-01T08:04:01.000Z</time>
      </trkpt>
      <trkpt lat="50.59427" lon="4.53773">
        <ele>108.9</ele>
        <time>2015-06-01T08:04:08.000Z</time>
      </trkpt>
      <trkpt lat="50.59431" lon="4.53783">
        <ele>110.7</ele>
        <time>2015-06-01T08:04:14.000Z</time>
      </trkpt>
      <trkpt lat="50.59431" lon="4.53785">
        <ele>111</ele>
        <time>2015-06-01T08:04:16.000Z</time>
      </trkpt>
      <trkpt lat="50.59434" lon="4.53794">
        <ele>112.6</ele>
        <time>2015-06-01T08:04:24.000Z</time>
      </trkpt>
      <trkpt lat="50.59436" lon="4.53797">
        <ele>113.3</ele>
        <time>2015-06-01T08:04:28.000Z</time>
      </trkpt>
      <trkpt lat="50.59437" lon="4.53807">
        <ele>114.9</ele>
        <time>2015-06-01T08:04:34.000Z</time>
      </trkpt>
      <trkpt lat="50.59438" lon="4.53808">
        <ele>115</ele>
        <time>2015-06-01T08:04:35.000Z</time>
      </trkpt>
      <trkpt lat="50.59434" lon="4.53816">
        <ele>115.4</ele>
        <time>2015-06-01T08:04:42.000Z</time>
      </trkpt>
      <trkpt lat="50.59433" lon="4.53821">
        <ele>115.9</ele>
        <time>2015-06-01T08:04:46.000Z</time>
      </trkpt>
      <trkpt lat="50.59433" lon="4.53824">
        <ele>116.2</ele>
        <time>2015-06-01T08:04:48.000Z</time>
      </trkpt>
      <trkpt lat="50.59431" lon="4.53835">
        <ele>117.3</ele>
        <time>2015-06-01T08:04:54.000Z</time>
      </trkpt>
      <trkpt lat="50.59428" lon="4.53847">
        <ele>118.4</ele>
        <time>2015-06-01T08:05:00.000Z</time>
      </trkpt>
      <trkpt lat="50.59427" lon="4.53855">
        <ele>119.3</ele>
        <time>2015-06-01T08:05:04.000Z</time>
      </trkpt>
      <trkpt lat="50.59427" lon="4.5387">
        <ele>120.6</ele>
        <time>2015-06-01T08:05:10.000Z</time>
      </trkpt>
      <trkpt lat="50.59427" lon="4.53871">
        <ele>120.7</ele>
        <time>2015-06-01T08:05:11.000Z</time>
      </trkpt>
      <trkpt lat="50.59428" lon="4.53877">
        <ele>121.1</ele>
        <time>2015-06-01T08:05:14.000Z</time>
      </trkpt>
      <trkpt lat="50.59428" lon="4.53882">
        <ele>121.4</ele>
        <time>2015-06-01T08:05:16.000Z</time>
      </trkpt>
      <trkpt lat="50.59427" lon="4.53898">
        <ele>122.4</ele>
        <time>2015-06-01T08:05:23.000Z</time>
      </trkpt>
      <trkpt lat="50.59427" lon="4.539">
        <ele>122.5</ele>
        <time>2015-06-01T08:05:24.000Z</time>
      </trkpt>
      <trkpt lat="50.59424" lon="4.53912">
        <ele>123.2</ele>
        <time>2015-06-01T08:05:30.000Z</time>
      </trkpt>
      <trkpt lat="50.59422" lon="4.53925">
        <ele>123.9</ele>
        <time>2015-06-01T08:05:36.000Z</time>
      </trkpt>
      <trkpt lat="50.59419" lon="4.53936">
        <ele>124.5</ele>
        <time>2015-06-01T08:05:42.000Z</time>
      </trkpt>
      <trkpt lat="50.59418" lon="4.53943">
        <ele>124.9</ele>
        <time>2015-06-01T08:05:47.000Z</time>
      </trkpt>
      <trkpt lat="50.59417" lon="4.53945">
        <ele>125</ele>
        <time>2015-06-01T08:05:48.000Z</time>
      </trkpt>
      <trkpt lat="50.5941" lon="4.53958">
        <ele>125.1</ele>
        <time>2015-06-01T08:05:55.000Z</time>
      </trkpt>
      <trkpt lat="50.59408" lon="4.53963">
        <ele>125.2</ele>
        <time>2015-06-01T08:05:58.000Z</time>
      </trkpt>
      <trkpt lat="50.59404" lon="4.53976">
        <ele>125.8</ele>
        <time>2015-06-01T08:06:05.000Z</time>
      </trkpt>
      <trkpt lat="50.59403" lon="4.5398">
        <ele>126</ele>
        <time>2015-06-01T08:06:07.000Z</time>
      </trkpt>
      <trkpt lat="50.59402" lon="4.53984">
        <ele>126.1</ele>
        <time>2015-06-01T08:06:09.000Z</time>
      </trkpt>
      <trkpt lat="50.59399" lon="4.53996">
        <ele>126.6</ele>
        <time>2015-06-01T08:06:15.000Z</time>
      </trkpt>
      <trkpt lat="50.59395" lon="4.5401">
        <ele>127.1</ele>
        <time>2015-06-01T08:06:21.000Z</time>
      </trkpt>
      <trkpt lat="50.59394" lon="4.54022">
        <ele>127.8</ele>
        <time>2015-06-01T08:06:26.000Z</time>
      </trkpt>
      <trkpt lat="50.59393" lon="4.54029">
        <ele>128.2</ele>
        <time>2015-06-01T08:06:29.000Z</time>
      </trkpt>
      <trkpt lat="50.59397" lon="4.54043">
        <ele>128.8</ele>
        <time>2015-06-01T08:06:36.000Z</time>
      </trkpt>
      <trkpt lat="50.59397" lon="4.54047">
        <ele>129</ele>
        <time>2015-06-01T08:06:38.000Z</time>
      </trkpt>
      <trkpt lat="50.59391" lon="4.54065">
        <ele>129.4</ele>
        <time>2015-06-01T08:06:46.000Z</time>
      </trkpt>
      <trkpt lat="50.59391" lon="4.54067">
        <ele>129.5</ele>
        <time>2015-06-01T08:06:47.000Z</time>
      </trkpt>
      <trkpt lat="50.59387" lon="4.54082">
        <ele>129.9</ele>
        <time>2015-06-01T08:06:54.000Z</time>
      </trkpt>
      <trkpt lat="50.59387" lon="4.54089">
        <ele>130.1</ele>
        <time>2015-06-01T08:06:58.000Z</time>
      </trkpt>
      <trkpt lat="50.59387" lon="4.54103">
        <ele>130.7</ele>
        <time>2015-06-01T08:07:05.000Z</time>
      </trkpt>
      <trkpt lat="50.59387" lon="4.54107">
        <ele>130.8</ele>
        <time>2015-06-01T08:07:07.000Z</time>
      </trkpt>
      <trkpt lat="50.59388" lon="4.54117">
        <ele>131.2</ele>
        <time>2015-06-01T08:07:11.000Z</time>
      </trkpt>
      <trkpt lat="50.5939" lon="4.5413">
        <ele>131.7</ele>
        <time>2015-06-01T08:07:17.000Z</time>
      </trkpt>
      <trkpt lat="50.59389" lon="4.54142">
        <ele>132.1</ele>
        <time>2015-06-01T08:07:23.000Z</time>
      </trkpt>
      <trkpt lat="50.59389" lon="4.54154">
        <ele>132.6</ele>
        <time>2015-06-01T08:07:28.000Z</time>
      </trkpt>
      <trkpt lat="50.59389" lon="4.54157">
        <ele>132.7</ele>
        <time>2015-06-01T08:07:29.000Z</time>
      </trkpt>
      <trkpt lat="50.59387" lon="4.54174">
        <ele>132.8</ele>
        <time>2015-06-01T08:07:37.000Z</time>
      </trkpt>
      <trkpt lat="50.59386" lon="4.54187">
        <ele>132.8</ele>
        <time>2015-06-01T08:07:43.000Z</time>
      </trkpt>
      <trkpt lat="50.59386" lon="4.54191">
        <ele>132.8</ele>
        <time>2015-06-01T08:07:45.000Z</time>
      </trkpt>
      <trkpt lat="50.59385" lon="4.54198">
        <ele>132.8</ele>
        <time>2015-06-01T08:07:48.000Z</time>
      </trkpt>
      <trkpt lat="50.59387" lon="4.54212">
        <ele>133.5</ele>
        <time>2015-06-01T08:07:55.000Z</time>
      </trkpt>
      <trkpt lat="50.59385" lon="4.54228">
        <ele>133.7</ele>
        <time>2015-06-01T08:08:02.000Z</time>
      </trkpt>
      <trkpt lat="50.59386" lon="4.54242">
        <ele>133.8</ele>
        <time>2015-06-01T08:08:08.000Z</time>
      </trkpt>
      <trkpt lat="50.59386" lon="4.54257">
        <ele>133.8</ele>
        <time>2015-06-01T08:08:15.000Z</time>
      </trkpt>
      <trkpt lat="50.59387" lon="4.54263">
        <ele>133.8</ele>
        <time>2015-06-01T08:08:18.000Z</time>
      </trkpt>
      <trkpt lat="50.59387" lon="4.54282">
        <ele>134.1</ele>
        <time>2015-06-01T08:08:26.000Z</time>
      </trkpt>
      <trkpt lat="50.59386" lon="4.54296">
        <ele>134.5</ele>
        <time>2015-06-01T08:08:31.000Z</time>
      </trkpt>
      <trkpt lat="50.59387" lon="4.54301">
        <ele>134.7</ele>
        <time>2015-06-01T08:08:33.000Z</time>
      </trkpt>
      <trkpt lat="50.59389" lon="4.54315">
        <ele>135</ele>
        <time>2015-06-01T08:08:39.000Z</time>
      </trkpt>
      <trkpt lat="50.59386" lon="4.54326">
        <ele>134.8</ele>
        <time>2015-06-01T08:08:44.000Z</time>
      </trkpt>
      <trkpt lat="50.59387" lon="4.54328">
        <ele>134.8</ele>
        <time>2015-06-01T08:08:45.000Z</time>
      </trkpt>
      <trkpt lat="50.59389" lon="4.54341">
        <ele>135</ele>
        <time>2015-06-01T08:08:51.000Z</time>
      </trkpt>
      <trkpt lat="50.59388" lon="4.54351">
        <ele>135</ele>
        <time>2015-06-01T08:08:55.000Z</time>
      </trkpt>
      <trkpt lat="50.59389" lon="4.54357">
        <ele>135</ele>
        <time>2015-06-01T08:08:58.000Z</time>
      </trkpt>
      <trkpt lat="50.59388" lon="4.54371">
        <ele>135.3</ele>
        <time>2015-06-01T08:09:04.000Z</time>
      </trkpt>
      <trkpt lat="50.59386" lon="4.54386">
        <ele>135.7</ele>
        <time>2015-06-01T08:09:11.000Z</time>
      </trkpt>
      <trkpt lat="50.59389" lon="4.54398">
        <ele>136</ele>
        <time>2015-06-01T08:09:16.000Z</time>
      </trkpt>
      <trkpt lat="50.5939" lon="4.54409">
        <ele>136</ele>
        <time>2015-06-01T08:09:21.000Z</time>
      </trkpt>
      <trkpt lat="50.5939" lon="4.5442">
        <ele>136</ele>
        <time>2015-06-01T08:09:26.000Z</time>
      </trkpt>
      <trkpt lat="50.5939" lon="4.54432">
        <ele>136</ele>
        <time>2015-06-01T08:09:31.000Z</time>
      </trkpt>
      <trkpt lat="50.59391" lon="4.54438">
        <ele>136.1</ele>
        <time>2015-06-01T08:09:34.000Z</time>
      </trkpt>
      <trkpt lat="50.59388" lon="4.54455">
        <ele>135.9</ele>
        <time>2015-06-01T08:09:41.000Z</time>
      </trkpt>
      <trkpt lat="50.59389" lon="4.54467">
        <ele>136</ele>
        <time>2015-06-01T08:09:46.000Z</time>
      </trkpt>
      <trkpt lat="50.5939" lon="4.54483">
        <ele>136.4</ele>
        <time>2015-06-01T08:09:53.000Z</time>
      </trkpt>
      <trkpt lat="50.5939" lon="4.54486">
        <ele>136.5</ele>
        <time>2015-06-01T08:09:55.000Z</time>
      </trkpt>
      <trkpt lat="50.59391" lon="4.54502">
        <ele>137</ele>
        <time>2015-06-01T08:10:03.000Z</time>
      </trkpt>
      <trkpt lat="50.59391" lon="4.54504">
        <ele>137</ele>
        <time>2015-06-01T08:10:04.000Z</time>
      </trkpt>
      <trkpt lat="50.59389" lon="4.54508">
        <ele>137</ele>
        <time>2015-06-01T08:10:12.000Z</time>
      </trkpt>
      <trkpt lat="50.59388" lon="4.54509">
        <ele>137</ele>
        <time>2015-06-01T08:10:16.000Z</time>
      </trkpt>
      <trkpt lat="50.59384" lon="4.54513">
        <ele>136.9</ele>
        <time>2015-06-01T08:10:18.000Z</time>
      </trkpt>
      <trkpt lat="50.59386" lon="4.54511">
        <ele>136.9</ele>
        <time>2015-06-01T08:10:26.000Z</time>
      </trkpt>
      <trkpt lat="50.59387" lon="4.54522">
        <ele>137</ele>
        <time>2015-06-01T08:10:32.000Z</time>
      </trkpt>
      <trkpt lat="50.59383" lon="4.54522">
        <ele>137</ele>
        <time>2015-06-01T08:10:40.000Z</time>
      </trkpt>
      <trkpt lat="50.59384" lon="4.54528">
        <ele>137</ele>
        <time>2015-06-01T08:10:44.000Z</time>
      </trkpt>
      <trkpt lat="50.59383" lon="4.54543">
        <ele>137.4</ele>
        <time>2015-06-01T08:10:50.000Z</time>
      </trkpt>
      <trkpt lat="50.59385" lon="4.54554">
        <ele>137.8</ele>
        <time>2015-06-01T08:10:55.000Z</time>
      </trkpt>
      <trkpt lat="50.59386" lon="4.54558">
        <ele>137.9</ele>
        <time>2015-06-01T08:10:57.000Z</time>
      </trkpt>
      <trkpt lat="50.59386" lon="4.54561">
        <ele>137.9</ele>
        <time>2015-06-01T08:10:59.000Z</time>
      </trkpt>
      <trkpt lat="50.59387" lon="4.54573">
        <ele>138</ele>
        <time>2015-06-01T08:11:05.000Z</time>
      </trkpt>
      <trkpt lat="50.59386" lon="4.54575">
        <ele>138</ele>
        <time>2015-06-01T08:11:06.000Z</time>
      </trkpt>
      <trkpt lat="50.59387" lon="4.54583">
        <ele>138</ele>
        <time>2015-06-01T08:11:10.000Z</time>
      </trkpt>
      <trkpt lat="50.59388" lon="4.5459">
        <ele>138</ele>
        <time>2015-06-01T08:11:14.000Z</time>
      </trkpt>
      <trkpt lat="50.59386" lon="4.54603">
        <ele>138.1</ele>
        <time>2015-06-01T08:11:21.000Z</time>
      </trkpt>
      <trkpt lat="50.59387" lon="4.54618">
        <ele>138.3</ele>
        <time>2015-06-01T08:11:28.000Z</time>
      </trkpt>
      <trkpt lat="50.59385" lon="4.54632">
        <ele>138.8</ele>
        <time>2015-06-01T08:11:35.000Z</time>
      </trkpt>
      <trkpt lat="50.59382" lon="4.54648">
        <ele>139</ele>
        <time>2015-06-01T08:11:42.000Z</time>
      </trkpt>
      <trkpt lat="50.59378" lon="4.54658">
        <ele>139</ele>
        <time>2015-06-01T08:11:46.000Z</time>
      </trkpt>
      <trkpt lat="50.59377" lon="4.54661">
        <ele>139</ele>
        <time>2015-06-01T08:11:48.000Z</time>
      </trkpt>
      <trkpt lat="50.59373" lon="4.54674">
        <ele>139.1</ele>
        <time>2015-06-01T08:11:54.000Z</time>
      </trkpt>
      <trkpt lat="50.59367" lon="4.54683">
        <ele>139.5</ele>
        <time>2015-06-01T08:11:59.000Z</time>
      </trkpt>
      <trkpt lat="50.59365" lon="4.54688">
        <ele>139.7</ele>
        <time>2015-06-01T08:12:01.000Z</time>
      </trkpt>
      <trkpt lat="50.59362" lon="4.54705">
        <ele>140</ele>
        <time>2015-06-01T08:12:07.000Z</time>
      </trkpt>
      <trkpt lat="50.59355" lon="4.54718">
        <ele>140</ele>
        <time>2015-06-01T08:12:11.000Z</time>
      </trkpt>
      <trkpt lat="50.59351" lon="4.54735">
        <ele>140</ele>
        <time>2015-06-01T08:12:19.000Z</time>
      </trkpt>
      <trkpt lat="50.59351" lon="4.54736">
        <ele>140</ele>
        <time>2015-06-01T08:12:20.000Z</time>
      </trkpt>
      <trkpt lat="50.59349" lon="4.54743">
        <ele>140</ele>
        <time>2015-06-01T08:12:23.000Z</time>
      </trkpt>
      <trkpt lat="50.59349" lon="4.54749">
        <ele>140</ele>
        <time>2015-06-01T08:12:28.000Z</time>
      </trkpt>
      <trkpt lat="50.59351" lon="4.54758">
        <ele>140</ele>
        <time>2015-06-01T08:12:33.000Z</time>
      </trkpt>
      <trkpt lat="50.59352" lon="4.54769">
        <ele>140</ele>
        <time>2015-06-01T08:12:38.000Z</time>
      </trkpt>
      <trkpt lat="50.59352" lon="4.54774">
        <ele>140</ele>
        <time>2015-06-01T08:12:41.000Z</time>
      </trkpt>
      <trkpt lat="50.59359" lon="4.54791">
        <ele>140.4</ele>
        <time>2015-06-01T08:12:48.000Z</time>
      </trkpt>
      <trkpt lat="50.5936" lon="4.54798">
        <ele>140.7</ele>
        <time>2015-06-01T08:12:52.000Z</time>
      </trkpt>
      <trkpt lat="50.59368" lon="4.54808">
        <ele>141</ele>
        <time>2015-06-01T08:12:58.000Z</time>
      </trkpt>
      <trkpt lat="50.59368" lon="4.54813">
        <ele>141</ele>
        <time>2015-06-01T08:13:00.000Z</time>
      </trkpt>
      <trkpt lat="50.5937" lon="4.54818">
        <ele>141</ele>
        <time>2015-06-01T08:13:02.000Z</time>
      </trkpt>
      <trkpt lat="50.59373" lon="4.54829">
        <ele>141</ele>
        <time>2015-06-01T08:13:07.000Z</time>
      </trkpt>
      <trkpt lat="50.59381" lon="4.54844">
        <ele>141</ele>
        <time>2015-06-01T08:13:15.000Z</time>
      </trkpt>
      <trkpt lat="50.59385" lon="4.54854">
        <ele>141</ele>
        <time>2015-06-01T08:13:20.000Z</time>
      </trkpt>
      <trkpt lat="50.59387" lon="4.54872">
        <ele>140.6</ele>
        <time>2015-06-01T08:13:27.000Z</time>
      </trkpt>
      <trkpt lat="50.5939" lon="4.54884">
        <ele>140.2</ele>
        <time>2015-06-01T08:13:32.000Z</time>
      </trkpt>
      <trkpt lat="50.59393" lon="4.54897">
        <ele>140</ele>
        <time>2015-06-01T08:13:38.000Z</time>
      </trkpt>
      <trkpt lat="50.59394" lon="4.54905">
        <ele>140</ele>
        <time>2015-06-01T08:13:42.000Z</time>
      </trkpt>
      <trkpt lat="50.59398" lon="4.54915">
        <ele>140</ele>
        <time>2015-06-01T08:13:47.000Z</time>
      </trkpt>
      <trkpt lat="50.59398" lon="4.54928">
        <ele>139.9</ele>
        <time>2015-06-01T08:13:53.000Z</time>
      </trkpt>
      <trkpt lat="50.59405" lon="4.54941">
        <ele>139.5</ele>
        <time>2015-06-01T08:13:59.000Z</time>
      </trkpt>
      <trkpt lat="50.59409" lon="4.54949">
        <ele>139.3</ele>
        <time>2015-06-01T08:14:03.000Z</time>
      </trkpt>
      <trkpt lat="50.59409" lon="4.54952">
        <ele>139.3</ele>
        <time>2015-06-01T08:14:05.000Z</time>
      </trkpt>
      <trkpt lat="50.59413" lon="4.54963">
        <ele>139.1</ele>
        <time>2015-06-01T08:14:10.000Z</time>
      </trkpt>
      <trkpt lat="50.59413" lon="4.54966">
        <ele>139.1</ele>
        <time>2015-06-01T08:14:11.000Z</time>
      </trkpt>
      <trkpt lat="50.59422" lon="4.54985">
        <ele>138.7</ele>
        <time>2015-06-01T08:14:19.000Z</time>
      </trkpt>
      <trkpt lat="50.59425" lon="4.55001">
        <ele>138.7</ele>
        <time>2015-06-01T08:14:25.000Z</time>
      </trkpt>
      <trkpt lat="50.59426" lon="4.5501">
        <ele>139</ele>
        <time>2015-06-01T08:14:29.000Z</time>
      </trkpt>
      <trkpt lat="50.59429" lon="4.55029">
        <ele>139.5</ele>
        <time>2015-06-01T08:14:37.000Z</time>
      </trkpt>
      <trkpt lat="50.59432" lon="4.55044">
        <ele>139.2</ele>
        <time>2015-06-01T08:14:44.000Z</time>
      </trkpt>
      <trkpt lat="50.59432" lon="4.55049">
        <ele>139.1</ele>
        <time>2015-06-01T08:14:46.000Z</time>
      </trkpt>
      <trkpt lat="50.59434" lon="4.55059">
        <ele>139</ele>
        <time>2015-06-01T08:14:50.000Z</time>
      </trkpt>
      <trkpt lat="50.59438" lon="4.55073">
        <ele>139.1</ele>
        <time>2015-06-01T08:14:56.000Z</time>
      </trkpt>
      <trkpt lat="50.59439" lon="4.55076">
        <ele>139.1</ele>
        <time>2015-06-01T08:14:58.000Z</time>
      </trkpt>
      <trkpt lat="50.59444" lon="4.5509">
        <ele>139</ele>
        <time>2015-06-01T08:15:05.000Z</time>
      </trkpt>
      <trkpt lat="50.59445" lon="4.55095">
        <ele>139</ele>
        <time>2015-06-01T08:15:07.000Z</time>
      </trkpt>
      <trkpt lat="50.59446" lon="4.55101">
        <ele>139</ele>
        <time>2015-06-01T08:15:10.000Z</time>
      </trkpt>
      <trkpt lat="50.5945" lon="4.55114">
        <ele>138.8</ele>
        <time>2015-06-01T08:15:16.000Z</time>
      </trkpt>
      <trkpt lat="50.59453" lon="4.55124">
        <ele>138.7</ele>
        <time>2015-06-01T08:15:21.000Z</time>
      </trkpt>
      <trkpt lat="50.59453" lon="4.55126">
        <ele>138.7</ele>
        <time>2015-06-01T08:15:22.000Z</time>
      </trkpt>
      <trkpt lat="50.59452" lon="4.55141">
        <ele>138.6</ele>
        <time>2015-06-01T08:15:28.000Z</time>
      </trkpt>
      <trkpt lat="50.59455" lon="4.55151">
        <ele>138.2</ele>
        <time>2015-06-01T08:15:32.000Z</time>
      </trkpt>
      <trkpt lat="50.59457" lon="4.55168">
        <ele>137.5</ele>
        <time>2015-06-01T08:15:39.000Z</time>
      </trkpt>
      <trkpt lat="50.5946" lon="4.55178">
        <ele>137.5</ele>
        <time>2015-06-01T08:15:44.000Z</time>
      </trkpt>
      <trkpt lat="50.59461" lon="4.55188">
        <ele>137.4</ele>
        <time>2015-06-01T08:15:49.000Z</time>
      </trkpt>
      <trkpt lat="50.59467" lon="4.55199">
        <ele>136.9</ele>
        <time>2015-06-01T08:15:55.000Z</time>
      </trkpt>
      <trkpt lat="50.59472" lon="4.55214">
        <ele>135.6</ele>
        <time>2015-06-01T08:16:02.000Z</time>
      </trkpt>
      <trkpt lat="50.59472" lon="4.55228">
        <ele>134.6</ele>
        <time>2015-06-01T08:16:09.000Z</time>
      </trkpt>
      <trkpt lat="50.59477" lon="4.55246">
        <ele>133</ele>
        <time>2015-06-01T08:16:17.000Z</time>
      </trkpt>
      <trkpt lat="50.59478" lon="4.5525">
        <ele>132.6</ele>
        <time>2015-06-01T08:16:19.000Z</time>
      </trkpt>
      <trkpt lat="50.59481" lon="4.55265">
        <ele>131.9</ele>
        <time>2015-06-01T08:16:26.000Z</time>
      </trkpt>
      <trkpt lat="50.5948" lon="4.55277">
        <ele>131.5</ele>
        <time>2015-06-01T08:16:32.000Z</time>
      </trkpt>
      <trkpt lat="50.59483" lon="4.55287">
        <ele>130.7</ele>
        <time>2015-06-01T08:16:36.000Z</time>
      </trkpt>
      <trkpt lat="50.59482" lon="4.553">
        <ele>130</ele>
        <time>2015-06-01T08:16:42.000Z</time>
      </trkpt>
      <trkpt lat="50.5948" lon="4.55314">
        <ele>128.8</ele>
        <time>2015-06-01T08:16:49.000Z</time>
      </trkpt>
      <trkpt lat="50.59478" lon="4.55321">
        <ele>127.9</ele>
        <time>2015-06-01T08:16:54.000Z</time>
      </trkpt>
      <trkpt lat="50.59475" lon="4.5533">
        <ele>126.7</ele>
        <time>2015-06-01T08:16:58.000Z</time>
      </trkpt>
      <trkpt lat="50.5947" lon="4.55345">
        <ele>125.9</ele>
        <time>2015-06-01T08:17:05.000Z</time>
      </trkpt>
      <trkpt lat="50.59466" lon="4.55362">
        <ele>125.3</ele>
        <time>2015-06-01T08:17:13.000Z</time>
      </trkpt>
      <trkpt lat="50.59462" lon="4.55372">
        <ele>124.4</ele>
        <time>2015-06-01T08:17:18.000Z</time>
      </trkpt>
      <trkpt lat="50.59459" lon="4.55385">
        <ele>123.2</ele>
        <time>2015-06-01T08:17:24.000Z</time>
      </trkpt>
      <trkpt lat="50.59453" lon="4.554">
        <ele>121.5</ele>
        <time>2015-06-01T08:17:30.000Z</time>
      </trkpt>
      <trkpt lat="50.59448" lon="4.55413">
        <ele>120.4</ele>
        <time>2015-06-01T08:17:36.000Z</time>
      </trkpt>
      <trkpt lat="50.59445" lon="4.5542">
        <ele>119.9</ele>
        <time>2015-06-01T08:17:39.000Z</time>
      </trkpt>
      <trkpt lat="50.59441" lon="4.55432">
        <ele>119.5</ele>
        <time>2015-06-01T08:17:45.000Z</time>
      </trkpt>
      <trkpt lat="50.59438" lon="4.55444">
        <ele>119.3</ele>
        <time>2015-06-01T08:17:51.000Z</time>
      </trkpt>
      <trkpt lat="50.59437" lon="4.55446">
        <ele>119.2</ele>
        <time>2015-06-01T08:17:52.000Z</time>
      </trkpt>
      <trkpt lat="50.5943" lon="4.55462">
        <ele>119.3</ele>
        <time>2015-06-01T08:17:59.000Z</time>
      </trkpt>
      <trkpt lat="50.59424" lon="4.55474">
        <ele>119.8</ele>
        <time>2015-06-01T08:18:05.000Z</time>
      </trkpt>
      <trkpt lat="50.59422" lon="4.55484">
        <ele>119.5</ele>
        <time>2015-06-01T08:18:13.000Z</time>
      </trkpt>
      <trkpt lat="50.59423" lon="4.55496">
        <ele>118.8</ele>
        <time>2015-06-01T08:18:21.000Z</time>
      </trkpt>
      <trkpt lat="50.59423" lon="4.55497">
        <ele>118.7</ele>
        <time>2015-06-01T08:18:28.000Z</time>
      </trkpt>
      <trkpt lat="50.59428" lon="4.55504">
        <ele>118.1</ele>
        <time>2015-06-01T08:18:38.000Z</time>
      </trkpt>
      <trkpt lat="50.59436" lon="4.55508">
        <ele>117.3</ele>
        <time>2015-06-01T08:18:46.000Z</time>
      </trkpt>
      <trkpt lat="50.59446" lon="4.55507">
        <ele>116.4</ele>
        <time>2015-06-01T08:18:55.000Z</time>
      </trkpt>
      <trkpt lat="50.59458" lon="4.55508">
        <ele>115.7</ele>
        <time>2015-06-01T08:19:03.000Z</time>
      </trkpt>
      <trkpt lat="50.59469" lon="4.55509">
        <ele>115.2</ele>
        <time>2015-06-01T08:19:10.000Z</time>
      </trkpt>
      <trkpt lat="50.59479" lon="4.55512">
        <ele>114.7</ele>
        <time>2015-06-01T08:19:17.000Z</time>
      </trkpt>
      <trkpt lat="50.59494" lon="4.55515">
        <ele>114.2</ele>
        <time>2015-06-01T08:19:27.000Z</time>
      </trkpt>
      <trkpt lat="50.59507" lon="4.5552">
        <ele>113.8</ele>
        <time>2015-06-01T08:19:36.000Z</time>
      </trkpt>
      <trkpt lat="50.5952" lon="4.55523">
        <ele>113.4</ele>
        <time>2015-06-01T08:19:45.000Z</time>
      </trkpt>
      <trkpt lat="50.59531" lon="4.55527">
        <ele>112.9</ele>
        <time>2015-06-01T08:19:52.000Z</time>
      </trkpt>
      <trkpt lat="50.59539" lon="4.55528">
        <ele>112.6</ele>
        <time>2015-06-01T08:19:58.000Z</time>
      </trkpt>
      <trkpt lat="50.59545" lon="4.55527">
        <ele>112.4</ele>
        <time>2015-06-01T08:20:02.000Z</time>
      </trkpt>
      <trkpt lat="50.59552" lon="4.55529">
        <ele>112.1</ele>
        <time>2015-06-01T08:20:07.000Z</time>
      </trkpt>
      <trkpt lat="50.59562" lon="4.55528">
        <ele>112.2</ele>
        <time>2015-06-01T08:20:15.000Z</time>
      </trkpt>
      <trkpt lat="50.5957" lon="4.55523">
        <ele>112.3</ele>
        <time>2015-06-01T08:20:22.000Z</time>
      </trkpt>
      <trkpt lat="50.59583" lon="4.55508">
        <ele>111.6</ele>
        <time>2015-06-01T08:20:32.000Z</time>
      </trkpt>
      <trkpt lat="50.59592" lon="4.55494">
        <ele>111.5</ele>
        <time>2015-06-01T08:20:40.000Z</time>
      </trkpt>
      <trkpt lat="50.59601" lon="4.55477">
        <ele>111.2</ele>
        <time>2015-06-01T08:20:49.000Z</time>
      </trkpt>
      <trkpt lat="50.59611" lon="4.55464">
        <ele>110.7</ele>
        <time>2015-06-01T08:20:58.000Z</time>
      </trkpt>
      <trkpt lat="50.59619" lon="4.55449">
        <ele>110.4</ele>
        <time>2015-06-01T08:21:06.000Z</time>
      </trkpt>
      <trkpt lat="50.59628" lon="4.5544">
        <ele>110.5</ele>
        <time>2015-06-01T08:21:13.000Z</time>
      </trkpt>
      <trkpt lat="50.59633" lon="4.5544">
        <ele>110.7</ele>
        <time>2015-06-01T08:21:19.000Z</time>
      </trkpt>
      <trkpt lat="50.59639" lon="4.55448">
        <ele>111</ele>
        <time>2015-06-01T08:21:26.000Z</time>
      </trkpt>
      <trkpt lat="50.59645" lon="4.55453">
        <ele>111.7</ele>
        <time>2015-06-01T08:21:31.000Z</time>
      </trkpt>
      <trkpt lat="50.59655" lon="4.55461">
        <ele>113</ele>
        <time>2015-06-01T08:21:38.000Z</time>
      </trkpt>
      <trkpt lat="50.5966" lon="4.55462">
        <ele>113.6</ele>
        <time>2015-06-01T08:21:41.000Z</time>
      </trkpt>
      <trkpt lat="50.59667" lon="4.55465">
        <ele>114.6</ele>
        <time>2015-06-01T08:21:47.000Z</time>
      </trkpt>
      <trkpt lat="50.59672" lon="4.55467">
        <ele>115.2</ele>
        <time>2015-06-01T08:21:51.000Z</time>
      </trkpt>
      <trkpt lat="50.59679" lon="4.55473">
        <ele>115.8</ele>
        <time>2015-06-01T08:21:58.000Z</time>
      </trkpt>
      <trkpt lat="50.59682" lon="4.55474">
        <ele>116.1</ele>
        <time>2015-06-01T08:22:00.000Z</time>
      </trkpt>
      <trkpt lat="50.59691" lon="4.55474">
        <ele>117.3</ele>
        <time>2015-06-01T08:22:06.000Z</time>
      </trkpt>
      <trkpt lat="50.59696" lon="4.55472">
        <ele>118.2</ele>
        <time>2015-06-01T08:22:10.000Z</time>
      </trkpt>
      <trkpt lat="50.59701" lon="4.55464">
        <ele>119.6</ele>
        <time>2015-06-01T08:22:16.000Z</time>
      </trkpt>
      <trkpt lat="50.59703" lon="4.55459">
        <ele>120</ele>
        <time>2015-06-01T08:22:18.000Z</time>
      </trkpt>
      <trkpt lat="50.5971" lon="4.5545">
        <ele>121.1</ele>
        <time>2015-06-01T08:22:26.000Z</time>
      </trkpt>
      <trkpt lat="50.59715" lon="4.55441">
        <ele>121.6</ele>
        <time>2015-06-01T08:22:32.000Z</time>
      </trkpt>
      <trkpt lat="50.5972" lon="4.55434">
        <ele>122.5</ele>
        <time>2015-06-01T08:22:38.000Z</time>
      </trkpt>
      <trkpt lat="50.59723" lon="4.55422">
        <ele>123.8</ele>
        <time>2015-06-01T08:22:44.000Z</time>
      </trkpt>
      <trkpt lat="50.59724" lon="4.55421">
        <ele>123.9</ele>
        <time>2015-06-01T08:22:45.000Z</time>
      </trkpt>
      <trkpt lat="50.59729" lon="4.55408">
        <ele>125.3</ele>
        <time>2015-06-01T08:22:52.000Z</time>
      </trkpt>
      <trkpt lat="50.59738" lon="4.55402">
        <ele>126.7</ele>
        <time>2015-06-01T08:22:59.000Z</time>
      </trkpt>
      <trkpt lat="50.59742" lon="4.55394">
        <ele>127.6</ele>
        <time>2015-06-01T08:23:05.000Z</time>
      </trkpt>
      <trkpt lat="50.59746" lon="4.55388">
        <ele>128.4</ele>
        <time>2015-06-01T08:23:11.000Z</time>
      </trkpt>
      <trkpt lat="50.59752" lon="4.55377">
        <ele>128.8</ele>
        <time>2015-06-01T08:23:18.000Z</time>
      </trkpt>
      <trkpt lat="50.5976" lon="4.55365">
        <ele>129.3</ele>
        <time>2015-06-01T08:23:26.000Z</time>
      </trkpt>
      <trkpt lat="50.59768" lon="4.55358">
        <ele>130</ele>
        <time>2015-06-01T08:23:33.000Z</time>
      </trkpt>
      <trkpt lat="50.59774" lon="4.55352">
        <ele>131.2</ele>
        <time>2015-06-01T08:23:39.000Z</time>
      </trkpt>
      <trkpt lat="50.59781" lon="4.55346">
        <ele>132.6</ele>
        <time>2015-06-01T08:23:45.000Z</time>
      </trkpt>
      <trkpt lat="50.5979" lon="4.55338">
        <ele>134.2</ele>
        <time>2015-06-01T08:23:53.000Z</time>
      </trkpt>
      <trkpt lat="50.59798" lon="4.55333">
        <ele>135.2</ele>
        <time>2015-06-01T08:24:00.000Z</time>
      </trkpt>
      <trkpt lat="50.59803" lon="4.55331">
        <ele>135.7</ele>
        <time>2015-06-01T08:24:04.000Z</time>
      </trkpt>
      <trkpt lat="50.59809" lon="4.55329">
        <ele>136.4</ele>
        <time>2015-06-01T08:24:10.000Z</time>
      </trkpt>
      <trkpt lat="50.59818" lon="4.5533">
        <ele>137.3</ele>
        <time>2015-06-01T08:24:17.000Z</time>
      </trkpt>
      <trkpt lat="50.59821" lon="4.5533">
        <ele>137.6</ele>
        <time>2015-06-01T08:24:20.000Z</time>
      </trkpt>
      <trkpt lat="50.5983" lon="4.55335">
        <ele>138.7</ele>
        <time>2015-06-01T08:24:27.000Z</time>
      </trkpt>
      <trkpt lat="50.59835" lon="4.55338">
        <ele>139.2</ele>
        <time>2015-06-01T08:24:31.000Z</time>
      </trkpt>
      <trkpt lat="50.59847" lon="4.55344">
        <ele>140</ele>
        <time>2015-06-01T08:24:39.000Z</time>
      </trkpt>
      <trkpt lat="50.59857" lon="4.55347">
        <ele>140.7</ele>
        <time>2015-06-01T08:24:47.000Z</time>
      </trkpt>
      <trkpt lat="50.59868" lon="4.55348">
        <ele>141.3</ele>
        <time>2015-06-01T08:24:55.000Z</time>
      </trkpt>
      <trkpt lat="50.59879" lon="4.5535">
        <ele>141.6</ele>
        <time>2015-06-01T08:25:02.000Z</time>
      </trkpt>
      <trkpt lat="50.59892" lon="4.5535">
        <ele>142.1</ele>
        <time>2015-06-01T08:25:10.000Z</time>
      </trkpt>
      <trkpt lat="50.59901" lon="4.55349">
        <ele>142.2</ele>
        <time>2015-06-01T08:25:16.000Z</time>
      </trkpt>
      <trkpt lat="50.59909" lon="4.5535">
        <ele>142.4</ele>
        <time>2015-06-01T08:25:22.000Z</time>
      </trkpt>
      <trkpt lat="50.59915" lon="4.55351">
        <ele>142.6</ele>
        <time>2015-06-01T08:25:28.000Z</time>
      </trkpt>
      <trkpt lat="50.59925" lon="4.5535">
        <ele>142.6</ele>
        <time>2015-06-01T08:25:35.000Z</time>
      </trkpt>
      <trkpt lat="50.59933" lon="4.5535">
        <ele>142.6</ele>
        <time>2015-06-01T08:25:40.000Z</time>
      </trkpt>
      <trkpt lat="50.59943" lon="4.5535">
        <ele>142.6</ele>
        <time>2015-06-01T08:25:46.000Z</time>
      </trkpt>
      <trkpt lat="50.59956" lon="4.55349">
        <ele>142.7</ele>
        <time>2015-06-01T08:25:54.000Z</time>
      </trkpt>
      <trkpt lat="50.59963" lon="4.55349">
        <ele>142.9</ele>
        <time>2015-06-01T08:25:59.000Z</time>
      </trkpt>
      <trkpt lat="50.59974" lon="4.5535">
        <ele>143</ele>
        <time>2015-06-01T08:26:06.000Z</time>
      </trkpt>
      <trkpt lat="50.59983" lon="4.5535">
        <ele>143.2</ele>
        <time>2015-06-01T08:26:12.000Z</time>
      </trkpt>
      <trkpt lat="50.59993" lon="4.5535">
        <ele>143.4</ele>
        <time>2015-06-01T08:26:19.000Z</time>
      </trkpt>
      <trkpt lat="50.60002" lon="4.55351">
        <ele>143.6</ele>
        <time>2015-06-01T08:26:26.000Z</time>
      </trkpt>
      <trkpt lat="50.6001" lon="4.55352">
        <ele>143.8</ele>
        <time>2015-06-01T08:26:33.000Z</time>
      </trkpt>
      <trkpt lat="50.60013" lon="4.55353">
        <ele>143.8</ele>
        <time>2015-06-01T08:26:39.000Z</time>
      </trkpt>
      <trkpt lat="50.60022" lon="4.55352">
        <ele>143.9</ele>
        <time>2015-06-01T08:27:28.000Z</time>
      </trkpt>
      <trkpt lat="50.6003" lon="4.55346">
        <ele>144</ele>
        <time>2015-06-01T08:27:35.000Z</time>
      </trkpt>
      <trkpt lat="50.60032" lon="4.55342">
        <ele>144</ele>
        <time>2015-06-01T08:27:41.000Z</time>
      </trkpt>
      <trkpt lat="50.60035" lon="4.55338">
        <ele>144</ele>
        <time>2015-06-01T08:27:45.000Z</time>
      </trkpt>
      <trkpt lat="50.60041" lon="4.55316">
        <ele>143.4</ele>
        <time>2015-06-01T08:27:55.000Z</time>
      </trkpt>
      <trkpt lat="50.60046" lon="4.55302">
        <ele>143</ele>
        <time>2015-06-01T08:28:02.000Z</time>
      </trkpt>
      <trkpt lat="50.60051" lon="4.55284">
        <ele>143</ele>
        <time>2015-06-01T08:28:11.000Z</time>
      </trkpt>
      <trkpt lat="50.60053" lon="4.55283">
        <ele>143</ele>
        <time>2015-06-01T08:28:21.000Z</time>
      </trkpt>
      <trkpt lat="50.60051" lon="4.55286">
        <ele>143</ele>
        <time>2015-06-01T08:29:38.000Z</time>
      </trkpt>
      <trkpt lat="50.60052" lon="4.55286">
        <ele>143</ele>
        <time>2015-06-01T08:29:46.000Z</time>
      </trkpt>
      <trkpt lat="50.60052" lon="4.55283">
        <ele>143</ele>
        <time>2015-06-01T08:29:48.000Z</time>
      </trkpt>
      <trkpt lat="50.60054" lon="4.55274">
        <ele>143</ele>
        <time>2015-06-01T08:29:53.000Z</time>
      </trkpt>
      <trkpt lat="50.60059" lon="4.55258">
        <ele>143</ele>
        <time>2015-06-01T08:30:01.000Z</time>
      </trkpt>
      <trkpt lat="50.60063" lon="4.55244">
        <ele>143</ele>
        <time>2015-06-01T08:30:08.000Z</time>
      </trkpt>
      <trkpt lat="50.60069" lon="4.55228">
        <ele>143</ele>
        <time>2015-06-01T08:30:16.000Z</time>
      </trkpt>
      <trkpt lat="50.60072" lon="4.55216">
        <ele>143</ele>
        <time>2015-06-01T08:30:22.000Z</time>
      </trkpt>
      <trkpt lat="50.60075" lon="4.55205">
        <ele>143</ele>
        <time>2015-06-01T08:30:27.000Z</time>
      </trkpt>
      <trkpt lat="50.60077" lon="4.55199">
        <ele>143</ele>
        <time>2015-06-01T08:30:33.000Z</time>
      </trkpt>
      <trkpt lat="50.6008" lon="4.55188">
        <ele>143</ele>
        <time>2015-06-01T08:30:38.000Z</time>
      </trkpt>
      <trkpt lat="50.60087" lon="4.55168">
        <ele>143</ele>
        <time>2015-06-01T08:30:47.000Z</time>
      </trkpt>
      <trkpt lat="50.60092" lon="4.55149">
        <ele>143</ele>
        <time>2015-06-01T08:30:55.000Z</time>
      </trkpt>
      <trkpt lat="50.60099" lon="4.55133">
        <ele>143</ele>
        <time>2015-06-01T08:31:03.000Z</time>
      </trkpt>
      <trkpt lat="50.60105" lon="4.55118">
        <ele>143</ele>
        <time>2015-06-01T08:31:11.000Z</time>
      </trkpt>
      <trkpt lat="50.60106" lon="4.55115">
        <ele>143</ele>
        <time>2015-06-01T08:31:12.000Z</time>
      </trkpt>
      <trkpt lat="50.60113" lon="4.55099">
        <ele>143</ele>
        <time>2015-06-01T08:31:20.000Z</time>
      </trkpt>
      <trkpt lat="50.60118" lon="4.55085">
        <ele>143</ele>
        <time>2015-06-01T08:31:27.000Z</time>
      </trkpt>
      <trkpt lat="50.60122" lon="4.55074">
        <ele>142.7</ele>
        <time>2015-06-01T08:31:32.000Z</time>
      </trkpt>
      <trkpt lat="50.60126" lon="4.55058">
        <ele>142.1</ele>
        <time>2015-06-01T08:31:39.000Z</time>
      </trkpt>
      <trkpt lat="50.60127" lon="4.55053">
        <ele>142</ele>
        <time>2015-06-01T08:31:41.000Z</time>
      </trkpt>
      <trkpt lat="50.60131" lon="4.55041">
        <ele>141.6</ele>
        <time>2015-06-01T08:31:47.000Z</time>
      </trkpt>
      <trkpt lat="50.60135" lon="4.55029">
        <ele>141.2</ele>
        <time>2015-06-01T08:31:53.000Z</time>
      </trkpt>
      <trkpt lat="50.60136" lon="4.55024">
        <ele>141.1</ele>
        <time>2015-06-01T08:31:55.000Z</time>
      </trkpt>
      <trkpt lat="50.6014" lon="4.55007">
        <ele>141</ele>
        <time>2015-06-01T08:32:02.000Z</time>
      </trkpt>
      <trkpt lat="50.60145" lon="4.54992">
        <ele>140.7</ele>
        <time>2015-06-01T08:32:09.000Z</time>
      </trkpt>
      <trkpt lat="50.60148" lon="4.54984">
        <ele>140.4</ele>
        <time>2015-06-01T08:32:13.000Z</time>
      </trkpt>
      <trkpt lat="50.60154" lon="4.54968">
        <ele>139.8</ele>
        <time>2015-06-01T08:32:21.000Z</time>
      </trkpt>
      <trkpt lat="50.60159" lon="4.54954">
        <ele>139.3</ele>
        <time>2015-06-01T08:32:28.000Z</time>
      </trkpt>
      <trkpt lat="50.6016" lon="4.54951">
        <ele>139.3</ele>
        <time>2015-06-01T08:32:29.000Z</time>
      </trkpt>
      <trkpt lat="50.60171" lon="4.54935">
        <ele>139.1</ele>
        <time>2015-06-01T08:32:38.000Z</time>
      </trkpt>
      <trkpt lat="50.60185" lon="4.54911">
        <ele>138.8</ele>
        <time>2015-06-01T08:32:51.000Z</time>
      </trkpt>
      <trkpt lat="50.60193" lon="4.54894">
        <ele>138.2</ele>
        <time>2015-06-01T08:33:00.000Z</time>
      </trkpt>
      <trkpt lat="50.60203" lon="4.54878">
        <ele>137.6</ele>
        <time>2015-06-01T08:33:10.000Z</time>
      </trkpt>
      <trkpt lat="50.60212" lon="4.54862">
        <ele>137</ele>
        <time>2015-06-01T08:33:19.000Z</time>
      </trkpt>
      <trkpt lat="50.60222" lon="4.54851">
        <ele>136.6</ele>
        <time>2015-06-01T08:33:27.000Z</time>
      </trkpt>
      <trkpt lat="50.60233" lon="4.54838">
        <ele>135.8</ele>
        <time>2015-06-01T08:33:36.000Z</time>
      </trkpt>
      <trkpt lat="50.60245" lon="4.54823">
        <ele>135</ele>
        <time>2015-06-01T08:33:46.000Z</time>
      </trkpt>
      <trkpt lat="50.60254" lon="4.54805">
        <ele>134.8</ele>
        <time>2015-06-01T08:33:55.000Z</time>
      </trkpt>
      <trkpt lat="50.6026" lon="4.54796">
        <ele>134.4</ele>
        <time>2015-06-01T08:34:01.000Z</time>
      </trkpt>
      <trkpt lat="50.60267" lon="4.54779">
        <ele>134</ele>
        <time>2015-06-01T08:34:10.000Z</time>
      </trkpt>
      <trkpt lat="50.60266" lon="4.54758">
        <ele>134</ele>
        <time>2015-06-01T08:34:18.000Z</time>
      </trkpt>
      <trkpt lat="50.60261" lon="4.54744">
        <ele>134</ele>
        <time>2015-06-01T08:34:24.000Z</time>
      </trkpt>
      <trkpt lat="50.60252" lon="4.54733">
        <ele>134</ele>
        <time>2015-06-01T08:34:31.000Z</time>
      </trkpt>
      <trkpt lat="50.60243" lon="4.54723">
        <ele>134</ele>
        <time>2015-06-01T08:34:38.000Z</time>
      </trkpt>
      <trkpt lat="50.6024" lon="4.54718">
        <ele>134.1</ele>
        <time>2015-06-01T08:34:41.000Z</time>
      </trkpt>
      <trkpt lat="50.60237" lon="4.54716">
        <ele>134.1</ele>
        <time>2015-06-01T08:34:43.000Z</time>
      </trkpt>
      <trkpt lat="50.60231" lon="4.54708">
        <ele>134.2</ele>
        <time>2015-06-01T08:34:48.000Z</time>
      </trkpt>
      <trkpt lat="50.60227" lon="4.54697">
        <ele>134.1</ele>
        <time>2015-06-01T08:34:54.000Z</time>
      </trkpt>
      <trkpt lat="50.60225" lon="4.54682">
        <ele>134.1</ele>
        <time>2015-06-01T08:35:01.000Z</time>
      </trkpt>
      <trkpt lat="50.60225" lon="4.54679">
        <ele>134.1</ele>
        <time>2015-06-01T08:35:02.000Z</time>
      </trkpt>
      <trkpt lat="50.60224" lon="4.54663">
        <ele>134.2</ele>
        <time>2015-06-01T08:35:09.000Z</time>
      </trkpt>
      <trkpt lat="50.60223" lon="4.5465">
        <ele>134.6</ele>
        <time>2015-06-01T08:35:15.000Z</time>
      </trkpt>
      <trkpt lat="50.60223" lon="4.54645">
        <ele>134.8</ele>
        <time>2015-06-01T08:35:17.000Z</time>
      </trkpt>
      <trkpt lat="50.60224" lon="4.5463">
        <ele>135</ele>
        <time>2015-06-01T08:35:23.000Z</time>
      </trkpt>
      <trkpt lat="50.60224" lon="4.54627">
        <ele>135</ele>
        <time>2015-06-01T08:35:24.000Z</time>
      </trkpt>
      <trkpt lat="50.60225" lon="4.54621">
        <ele>135</ele>
        <time>2015-06-01T08:35:28.000Z</time>
      </trkpt>
      <trkpt lat="50.60228" lon="4.54605">
        <ele>135</ele>
        <time>2015-06-01T08:35:35.000Z</time>
      </trkpt>
      <trkpt lat="50.60226" lon="4.54588">
        <ele>135</ele>
        <time>2015-06-01T08:35:42.000Z</time>
      </trkpt>
      <trkpt lat="50.60226" lon="4.54573">
        <ele>135</ele>
        <time>2015-06-01T08:35:48.000Z</time>
      </trkpt>
      <trkpt lat="50.60227" lon="4.54556">
        <ele>135</ele>
        <time>2015-06-01T08:35:54.000Z</time>
      </trkpt>
      <trkpt lat="50.60226" lon="4.54544">
        <ele>135</ele>
        <time>2015-06-01T08:35:59.000Z</time>
      </trkpt>
      <trkpt lat="50.60226" lon="4.54541">
        <ele>135</ele>
        <time>2015-06-01T08:36:00.000Z</time>
      </trkpt>
      <trkpt lat="50.60224" lon="4.54523">
        <ele>135</ele>
        <time>2015-06-01T08:36:07.000Z</time>
      </trkpt>
      <trkpt lat="50.60224" lon="4.54514">
        <ele>135</ele>
        <time>2015-06-01T08:36:13.000Z</time>
      </trkpt>
      <trkpt lat="50.60225" lon="4.54502">
        <ele>135</ele>
        <time>2015-06-01T08:36:18.000Z</time>
      </trkpt>
      <trkpt lat="50.60225" lon="4.54495">
        <ele>135</ele>
        <time>2015-06-01T08:36:21.000Z</time>
      </trkpt>
      <trkpt lat="50.60226" lon="4.5448">
        <ele>135</ele>
        <time>2015-06-01T08:36:27.000Z</time>
      </trkpt>
      <trkpt lat="50.60227" lon="4.54466">
        <ele>135.2</ele>
        <time>2015-06-01T08:36:33.000Z</time>
      </trkpt>
      <trkpt lat="50.60225" lon="4.54451">
        <ele>135.8</ele>
        <time>2015-06-01T08:36:38.000Z</time>
      </trkpt>
      <trkpt lat="50.60224" lon="4.54434">
        <ele>136</ele>
        <time>2015-06-01T08:36:46.000Z</time>
      </trkpt>
      <trkpt lat="50.60225" lon="4.54426">
        <ele>136</ele>
        <time>2015-06-01T08:36:50.000Z</time>
      </trkpt>
      <trkpt lat="50.60225" lon="4.54412">
        <ele>136</ele>
        <time>2015-06-01T08:36:56.000Z</time>
      </trkpt>
      <trkpt lat="50.60225" lon="4.544">
        <ele>136</ele>
        <time>2015-06-01T08:37:01.000Z</time>
      </trkpt>
      <trkpt lat="50.60224" lon="4.54389">
        <ele>136</ele>
        <time>2015-06-01T08:37:07.000Z</time>
      </trkpt>
      <trkpt lat="50.60225" lon="4.54376">
        <ele>136</ele>
        <time>2015-06-01T08:37:13.000Z</time>
      </trkpt>
      <trkpt lat="50.60226" lon="4.54366">
        <ele>136</ele>
        <time>2015-06-01T08:37:17.000Z</time>
      </trkpt>
      <trkpt lat="50.60225" lon="4.54344">
        <ele>136</ele>
        <time>2015-06-01T08:37:25.000Z</time>
      </trkpt>
      <trkpt lat="50.60225" lon="4.54328">
        <ele>136</ele>
        <time>2015-06-01T08:37:34.000Z</time>
      </trkpt>
      <trkpt lat="50.60226" lon="4.54316">
        <ele>136</ele>
        <time>2015-06-01T08:37:40.000Z</time>
      </trkpt>
      <trkpt lat="50.60227" lon="4.54296">
        <ele>136</ele>
        <time>2015-06-01T08:37:47.000Z</time>
      </trkpt>
      <trkpt lat="50.60227" lon="4.54294">
        <ele>136</ele>
        <time>2015-06-01T08:37:48.000Z</time>
      </trkpt>
      <trkpt lat="50.60228" lon="4.54275">
        <ele>136</ele>
        <time>2015-06-01T08:37:56.000Z</time>
      </trkpt>
      <trkpt lat="50.60234" lon="4.54258">
        <ele>136</ele>
        <time>2015-06-01T08:38:04.000Z</time>
      </trkpt>
      <trkpt lat="50.6024" lon="4.54246">
        <ele>136</ele>
        <time>2015-06-01T08:38:11.000Z</time>
      </trkpt>
      <trkpt lat="50.60251" lon="4.54235">
        <ele>136</ele>
        <time>2015-06-01T08:38:19.000Z</time>
      </trkpt>
      <trkpt lat="50.60259" lon="4.54228">
        <ele>136</ele>
        <time>2015-06-01T08:38:25.000Z</time>
      </trkpt>
      <trkpt lat="50.60268" lon="4.54218">
        <ele>135.9</ele>
        <time>2015-06-01T08:38:32.000Z</time>
      </trkpt>
      <trkpt lat="50.60276" lon="4.54214">
        <ele>136</ele>
        <time>2015-06-01T08:38:37.000Z</time>
      </trkpt>
      <trkpt lat="50.60288" lon="4.54211">
        <ele>136</ele>
        <time>2015-06-01T08:38:45.000Z</time>
      </trkpt>
      <trkpt lat="50.60305" lon="4.54207">
        <ele>136</ele>
        <time>2015-06-01T08:38:56.000Z</time>
      </trkpt>
      <trkpt lat="50.60319" lon="4.54204">
        <ele>135.7</ele>
        <time>2015-06-01T08:39:05.000Z</time>
      </trkpt>
      <trkpt lat="50.60334" lon="4.542">
        <ele>135.2</ele>
        <time>2015-06-01T08:39:15.000Z</time>
      </trkpt>
      <trkpt lat="50.60349" lon="4.54198">
        <ele>135.1</ele>
        <time>2015-06-01T08:39:25.000Z</time>
      </trkpt>
      <trkpt lat="50.60361" lon="4.54198">
        <ele>135.1</ele>
        <time>2015-06-01T08:39:34.000Z</time>
      </trkpt>
      <trkpt lat="50.60373" lon="4.54199">
        <ele>134.7</ele>
        <time>2015-06-01T08:39:42.000Z</time>
      </trkpt>
      <trkpt lat="50.60382" lon="4.542">
        <ele>134.5</ele>
        <time>2015-06-01T08:39:48.000Z</time>
      </trkpt>
      <trkpt lat="50.6039" lon="4.542">
        <ele>134.2</ele>
        <time>2015-06-01T08:39:54.000Z</time>
      </trkpt>
      <trkpt lat="50.60406" lon="4.54203">
        <ele>134.1</ele>
        <time>2015-06-01T08:40:04.000Z</time>
      </trkpt>
      <trkpt lat="50.60417" lon="4.54204">
        <ele>134</ele>
        <time>2015-06-01T08:40:12.000Z</time>
      </trkpt>
      <trkpt lat="50.60426" lon="4.54204">
        <ele>133.8</ele>
        <time>2015-06-01T08:40:18.000Z</time>
      </trkpt>
      <trkpt lat="50.60435" lon="4.54205">
        <ele>133.6</ele>
        <time>2015-06-01T08:40:24.000Z</time>
      </trkpt>
      <trkpt lat="50.60447" lon="4.54206">
        <ele>133.3</ele>
        <time>2015-06-01T08:40:32.000Z</time>
      </trkpt>
      <trkpt lat="50.60456" lon="4.54207">
        <ele>133</ele>
        <time>2015-06-01T08:40:38.000Z</time>
      </trkpt>
      <trkpt lat="50.60468" lon="4.54208">
        <ele>132.6</ele>
        <time>2015-06-01T08:40:46.000Z</time>
      </trkpt>
      <trkpt lat="50.60477" lon="4.54207">
        <ele>132.3</ele>
        <time>2015-06-01T08:40:53.000Z</time>
      </trkpt>
      <trkpt lat="50.60486" lon="4.54202">
        <ele>131.8</ele>
        <time>2015-06-01T08:41:00.000Z</time>
      </trkpt>
      <trkpt lat="50.60496" lon="4.54196">
        <ele>131.2</ele>
        <time>2015-06-01T08:41:07.000Z</time>
      </trkpt>
      <trkpt lat="50.60505" lon="4.54192">
        <ele>130.4</ele>
        <time>2015-06-01T08:41:13.000Z</time>
      </trkpt>
      <trkpt lat="50.60514" lon="4.54186">
        <ele>129.3</ele>
        <time>2015-06-01T08:41:20.000Z</time>
      </trkpt>
      <trkpt lat="50.60521" lon="4.54183">
        <ele>128.6</ele>
        <time>2015-06-01T08:41:25.000Z</time>
      </trkpt>
      <trkpt lat="50.60528" lon="4.54181">
        <ele>128</ele>
        <time>2015-06-01T08:41:30.000Z</time>
      </trkpt>
      <trkpt lat="50.60533" lon="4.54179">
        <ele>127.6</ele>
        <time>2015-06-01T08:41:37.000Z</time>
      </trkpt>
      <trkpt lat="50.60539" lon="4.54173">
        <ele>126.7</ele>
        <time>2015-06-01T08:42:06.000Z</time>
      </trkpt>
      <trkpt lat="50.60544" lon="4.54163">
        <ele>125.5</ele>
        <time>2015-06-01T08:42:13.000Z</time>
      </trkpt>
      <trkpt lat="50.60551" lon="4.54152">
        <ele>124.3</ele>
        <time>2015-06-01T08:42:21.000Z</time>
      </trkpt>
      <trkpt lat="50.60554" lon="4.54149">
        <ele>123.9</ele>
        <time>2015-06-01T08:42:24.000Z</time>
      </trkpt>
      <trkpt lat="50.60562" lon="4.54142">
        <ele>123</ele>
        <time>2015-06-01T08:42:30.000Z</time>
      </trkpt>
      <trkpt lat="50.60569" lon="4.54128">
        <ele>121.7</ele>
        <time>2015-06-01T08:42:39.000Z</time>
      </trkpt>
      <trkpt lat="50.60566" lon="4.54109">
        <ele>120.4</ele>
        <time>2015-06-01T08:42:47.000Z</time>
      </trkpt>
      <trkpt lat="50.60565" lon="4.54096">
        <ele>119.4</ele>
        <time>2015-06-01T08:42:54.000Z</time>
      </trkpt>
      <trkpt lat="50.60564" lon="4.54091">
        <ele>119.1</ele>
        <time>2015-06-01T08:44:18.000Z</time>
      </trkpt>
      <trkpt lat="50.6056" lon="4.54084">
        <ele>118.8</ele>
        <time>2015-06-01T08:44:23.000Z</time>
      </trkpt>
      <trkpt lat="50.60553" lon="4.54077">
        <ele>118.9</ele>
        <time>2015-06-01T08:44:30.000Z</time>
      </trkpt>
      <trkpt lat="50.60548" lon="4.54073">
        <ele>119</ele>
        <time>2015-06-01T08:44:35.000Z</time>
      </trkpt>
      <trkpt lat="50.60534" lon="4.5406">
        <ele>118.4</ele>
        <time>2015-06-01T08:44:46.000Z</time>
      </trkpt>
      <trkpt lat="50.60528" lon="4.54049">
        <ele>117.8</ele>
        <time>2015-06-01T08:44:53.000Z</time>
      </trkpt>
      <trkpt lat="50.6052" lon="4.54029">
        <ele>117.6</ele>
        <time>2015-06-01T08:45:03.000Z</time>
      </trkpt>
      <trkpt lat="50.60515" lon="4.54015">
        <ele>117.3</ele>
        <time>2015-06-01T08:45:10.000Z</time>
      </trkpt>
      <trkpt lat="50.60508" lon="4.54002">
        <ele>116.8</ele>
        <time>2015-06-01T08:45:17.000Z</time>
      </trkpt>
      <trkpt lat="50.60502" lon="4.53985">
        <ele>115.9</ele>
        <time>2015-06-01T08:45:26.000Z</time>
      </trkpt>
      <trkpt lat="50.60495" lon="4.5397">
        <ele>115</ele>
        <time>2015-06-01T08:45:34.000Z</time>
      </trkpt>
      <trkpt lat="50.60489" lon="4.5396">
        <ele>114.1</ele>
        <time>2015-06-01T08:45:42.000Z</time>
      </trkpt>
      <trkpt lat="50.6048" lon="4.5395">
        <ele>112.9</ele>
        <time>2015-06-01T08:45:50.000Z</time>
      </trkpt>
      <trkpt lat="50.60471" lon="4.5394">
        <ele>111.6</ele>
        <time>2015-06-01T08:45:58.000Z</time>
      </trkpt>
      <trkpt lat="50.60464" lon="4.53932">
        <ele>111.1</ele>
        <time>2015-06-01T08:46:03.000Z</time>
      </trkpt>
      <trkpt lat="50.60456" lon="4.53925">
        <ele>110.6</ele>
        <time>2015-06-01T08:46:10.000Z</time>
      </trkpt>
      <trkpt lat="50.60445" lon="4.53919">
        <ele>110.4</ele>
        <time>2015-06-01T08:46:17.000Z</time>
      </trkpt>
      <trkpt lat="50.60437" lon="4.53913">
        <ele>109.9</ele>
        <time>2015-06-01T08:46:22.000Z</time>
      </trkpt>
      <trkpt lat="50.60435" lon="4.53912">
        <ele>109.8</ele>
        <time>2015-06-01T08:46:27.000Z</time>
      </trkpt>
      <trkpt lat="50.60422" lon="4.539">
        <ele>109</ele>
        <time>2015-06-01T08:46:37.000Z</time>
      </trkpt>
      <trkpt lat="50.60412" lon="4.5389">
        <ele>108.5</ele>
        <time>2015-06-01T08:46:44.000Z</time>
      </trkpt>
      <trkpt lat="50.60402" lon="4.53881">
        <ele>108.2</ele>
        <time>2015-06-01T08:46:52.000Z</time>
      </trkpt>
      <trkpt lat="50.60388" lon="4.53866">
        <ele>107.6</ele>
        <time>2015-06-01T08:47:03.000Z</time>
      </trkpt>
      <trkpt lat="50.60375" lon="4.53852">
        <ele>106.8</ele>
        <time>2015-06-01T08:47:14.000Z</time>
      </trkpt>
      <trkpt lat="50.60362" lon="4.53844">
        <ele>106.7</ele>
        <time>2015-06-01T08:47:23.000Z</time>
      </trkpt>
      <trkpt lat="50.60351" lon="4.53837">
        <ele>106.3</ele>
        <time>2015-06-01T08:47:31.000Z</time>
      </trkpt>
      <trkpt lat="50.60337" lon="4.53835">
        <ele>106.1</ele>
        <time>2015-06-01T08:47:40.000Z</time>
      </trkpt>
      <trkpt lat="50.60318" lon="4.53834">
        <ele>105.5</ele>
        <time>2015-06-01T08:47:52.000Z</time>
      </trkpt>
      <trkpt lat="50.60305" lon="4.53833">
        <ele>104.9</ele>
        <time>2015-06-01T08:48:00.000Z</time>
      </trkpt>
      <trkpt lat="50.60283" lon="4.53824">
        <ele>104</ele>
        <time>2015-06-01T08:48:14.000Z</time>
      </trkpt>
      <trkpt lat="50.60273" lon="4.53817">
        <ele>103.3</ele>
        <time>2015-06-01T08:48:21.000Z</time>
      </trkpt>
      <trkpt lat="50.60263" lon="4.5381">
        <ele>103</ele>
        <time>2015-06-01T08:48:28.000Z</time>
      </trkpt>
      <trkpt lat="50.60253" lon="4.53804">
        <ele>102.7</ele>
        <time>2015-06-01T08:48:35.000Z</time>
      </trkpt>
      <trkpt lat="50.6024" lon="4.53795">
        <ele>102.4</ele>
        <time>2015-06-01T08:48:44.000Z</time>
      </trkpt>
      <trkpt lat="50.60231" lon="4.53786">
        <ele>102.1</ele>
        <time>2015-06-01T08:48:51.000Z</time>
      </trkpt>
      <trkpt lat="50.60221" lon="4.53777">
        <ele>102</ele>
        <time>2015-06-01T08:48:58.000Z</time>
      </trkpt>
      <trkpt lat="50.60213" lon="4.53773">
        <ele>101.8</ele>
        <time>2015-06-01T08:49:04.000Z</time>
      </trkpt>
      <trkpt lat="50.60209" lon="4.53769">
        <ele>101.6</ele>
        <time>2015-06-01T08:49:07.000Z</time>
      </trkpt>
      <trkpt lat="50.60201" lon="4.53759">
        <ele>100.7</ele>
        <time>2015-06-01T08:49:15.000Z</time>
      </trkpt>
      <trkpt lat="50.60196" lon="4.53746">
        <ele>99.7</ele>
        <time>2015-06-01T08:49:21.000Z</time>
      </trkpt>
      <trkpt lat="50.60191" lon="4.53732">
        <ele>98.7</ele>
        <time>2015-06-01T08:49:28.000Z</time>
      </trkpt>
      <trkpt lat="50.60187" lon="4.53721">
        <ele>97.8</ele>
        <time>2015-06-01T08:49:33.000Z</time>
      </trkpt>
      <trkpt lat="50.6018" lon="4.5371">
        <ele>96.3</ele>
        <time>2015-06-01T08:49:40.000Z</time>
      </trkpt>
      <trkpt lat="50.60173" lon="4.537">
        <ele>94.8</ele>
        <time>2015-06-01T08:49:47.000Z</time>
      </trkpt>
      <trkpt lat="50.60168" lon="4.53696">
        <ele>94.2</ele>
        <time>2015-06-01T08:49:51.000Z</time>
      </trkpt>
      <trkpt lat="50.60156" lon="4.53688">
        <ele>93.6</ele>
        <time>2015-06-01T08:50:00.000Z</time>
      </trkpt>
      <trkpt lat="50.60149" lon="4.53681">
        <ele>92.9</ele>
        <time>2015-06-01T08:50:06.000Z</time>
      </trkpt>
      <trkpt lat="50.60144" lon="4.53678">
        <ele>92.7</ele>
        <time>2015-06-01T08:50:09.000Z</time>
      </trkpt>
      <trkpt lat="50.60135" lon="4.53669">
        <ele>91.3</ele>
        <time>2015-06-01T08:50:17.000Z</time>
      </trkpt>
      <trkpt lat="50.60125" lon="4.53665">
        <ele>90.4</ele>
        <time>2015-06-01T08:50:23.000Z</time>
      </trkpt>
      <trkpt lat="50.60113" lon="4.53665">
        <ele>89.9</ele>
        <time>2015-06-01T08:50:30.000Z</time>
      </trkpt>
      <trkpt lat="50.60104" lon="4.53667">
        <ele>89</ele>
        <time>2015-06-01T08:50:37.000Z</time>
      </trkpt>
      <trkpt lat="50.60092" lon="4.53673">
        <ele>87.8</ele>
        <time>2015-06-01T08:50:45.000Z</time>
      </trkpt>
      <trkpt lat="50.60085" lon="4.53678">
        <ele>87.1</ele>
        <time>2015-06-01T08:50:52.000Z</time>
      </trkpt>
      <trkpt lat="50.60077" lon="4.53672">
        <ele>86</ele>
        <time>2015-06-01T08:51:00.000Z</time>
      </trkpt>
      <trkpt lat="50.60068" lon="4.53674">
        <ele>85.4</ele>
        <time>2015-06-01T08:51:07.000Z</time>
      </trkpt>
      <trkpt lat="50.60061" lon="4.53675">
        <ele>84.9</ele>
        <time>2015-06-01T08:51:13.000Z</time>
      </trkpt>
      <trkpt lat="50.60051" lon="4.53679">
        <ele>84.2</ele>
        <time>2015-06-01T08:51:21.000Z</time>
      </trkpt>
      <trkpt lat="50.6004" lon="4.53675">
        <ele>84.3</ele>
        <time>2015-06-01T08:51:30.000Z</time>
      </trkpt>
      <trkpt lat="50.60031" lon="4.53672">
        <ele>84.2</ele>
        <time>2015-06-01T08:51:38.000Z</time>
      </trkpt>
      <trkpt lat="50.60031" lon="4.53674">
        <ele>84.3</ele>
        <time>2015-06-01T08:51:48.000Z</time>
      </trkpt>
      <trkpt lat="50.60032" lon="4.53669">
        <ele>84.2</ele>
        <time>2015-06-01T08:52:37.000Z</time>
      </trkpt>
      <trkpt lat="50.60027" lon="4.53662">
        <ele>85.1</ele>
        <time>2015-06-01T08:52:59.000Z</time>
      </trkpt>
      <trkpt lat="50.60025" lon="4.53663">
        <ele>85</ele>
        <time>2015-06-01T08:53:01.000Z</time>
      </trkpt>
      <trkpt lat="50.60014" lon="4.53662">
        <ele>86.7</ele>
        <time>2015-06-01T08:53:10.000Z</time>
      </trkpt>
      <trkpt lat="50.60003" lon="4.53659">
        <ele>88.3</ele>
        <time>2015-06-01T08:53:19.000Z</time>
      </trkpt>
      <trkpt lat="50.59993" lon="4.53656">
        <ele>89.5</ele>
        <time>2015-06-01T08:53:26.000Z</time>
      </trkpt>
      <trkpt lat="50.5998" lon="4.53653">
        <ele>90.8</ele>
        <time>2015-06-01T08:53:35.000Z</time>
      </trkpt>
      <trkpt lat="50.59969" lon="4.53648">
        <ele>91.2</ele>
        <time>2015-06-01T08:53:42.000Z</time>
      </trkpt>
      <trkpt lat="50.5996" lon="4.53643">
        <ele>90.7</ele>
        <time>2015-06-01T08:53:47.000Z</time>
      </trkpt>
      <trkpt lat="50.59951" lon="4.53642">
        <ele>90.6</ele>
        <time>2015-06-01T08:53:53.000Z</time>
      </trkpt>
      <trkpt lat="50.59943" lon="4.53641">
        <ele>90.7</ele>
        <time>2015-06-01T08:53:59.000Z</time>
      </trkpt>
      <trkpt lat="50.59934" lon="4.53636">
        <ele>92</ele>
        <time>2015-06-01T08:54:06.000Z</time>
      </trkpt>
      <trkpt lat="50.59926" lon="4.53633">
        <ele>93.2</ele>
        <time>2015-06-01T08:54:12.000Z</time>
      </trkpt>
      <trkpt lat="50.59917" lon="4.5363">
        <ele>94.2</ele>
        <time>2015-06-01T08:54:19.000Z</time>
      </trkpt>
      <trkpt lat="50.5991" lon="4.53626">
        <ele>95.1</ele>
        <time>2015-06-01T08:54:25.000Z</time>
      </trkpt>
      <trkpt lat="50.59899" lon="4.53619">
        <ele>95.1</ele>
        <time>2015-06-01T08:54:33.000Z</time>
      </trkpt>
      <trkpt lat="50.59889" lon="4.53605">
        <ele>93.3</ele>
        <time>2015-06-01T08:54:42.000Z</time>
      </trkpt>
      <trkpt lat="50.59884" lon="4.53591">
        <ele>92.4</ele>
        <time>2015-06-01T08:54:49.000Z</time>
      </trkpt>
      <trkpt lat="50.59875" lon="4.53577">
        <ele>90.4</ele>
        <time>2015-06-01T08:54:57.000Z</time>
      </trkpt>
      <trkpt lat="50.59868" lon="4.53569">
        <ele>89.5</ele>
        <time>2015-06-01T08:55:03.000Z</time>
      </trkpt>
      <trkpt lat="50.59857" lon="4.53559">
        <ele>89.1</ele>
        <time>2015-06-01T08:55:11.000Z</time>
      </trkpt>
      <trkpt lat="50.59846" lon="4.5355">
        <ele>89</ele>
        <time>2015-06-01T08:55:19.000Z</time>
      </trkpt>
      <trkpt lat="50.59838" lon="4.53544">
        <ele>88.5</ele>
        <time>2015-06-01T08:55:25.000Z</time>
      </trkpt>
      <trkpt lat="50.59829" lon="4.53539">
        <ele>88.2</ele>
        <time>2015-06-01T08:55:31.000Z</time>
      </trkpt>
      <trkpt lat="50.59819" lon="4.53533">
        <ele>87.8</ele>
        <time>2015-06-01T08:55:38.000Z</time>
      </trkpt>
      <trkpt lat="50.59809" lon="4.53527">
        <ele>87.4</ele>
        <time>2015-06-01T08:55:45.000Z</time>
      </trkpt>
      <trkpt lat="50.59799" lon="4.53518">
        <ele>87.2</ele>
        <time>2015-06-01T08:55:53.000Z</time>
      </trkpt>
      <trkpt lat="50.5979" lon="4.5351">
        <ele>86.7</ele>
        <time>2015-06-01T08:56:00.000Z</time>
      </trkpt>
      <trkpt lat="50.59783" lon="4.53501">
        <ele>85.7</ele>
        <time>2015-06-01T08:56:06.000Z</time>
      </trkpt>
      <trkpt lat="50.5978" lon="4.53496">
        <ele>85.4</ele>
        <time>2015-06-01T08:56:09.000Z</time>
      </trkpt>
      <trkpt lat="50.59771" lon="4.53486">
        <ele>85.7</ele>
        <time>2015-06-01T08:56:16.000Z</time>
      </trkpt>
      <trkpt lat="50.59766" lon="4.53481">
        <ele>85.6</ele>
        <time>2015-06-01T08:56:20.000Z</time>
      </trkpt>
      <trkpt lat="50.59758" lon="4.53475">
        <ele>85</ele>
        <time>2015-06-01T08:56:27.000Z</time>
      </trkpt>
      <trkpt lat="50.59752" lon="4.53469">
        <ele>84.8</ele>
        <time>2015-06-01T08:56:33.000Z</time>
      </trkpt>
      <trkpt lat="50.59744" lon="4.53462">
        <ele>85.8</ele>
        <time>2015-06-01T08:56:40.000Z</time>
      </trkpt>
      <trkpt lat="50.59743" lon="4.53461">
        <ele>85.9</ele>
        <time>2015-06-01T08:56:41.000Z</time>
      </trkpt>
      <trkpt lat="50.59737" lon="4.53453">
        <ele>85.7</ele>
        <time>2015-06-01T08:56:47.000Z</time>
      </trkpt>
      <trkpt lat="50.5973" lon="4.53448">
        <ele>85.4</ele>
        <time>2015-06-01T08:56:53.000Z</time>
      </trkpt>
      <trkpt lat="50.59729" lon="4.53445">
        <ele>85</ele>
        <time>2015-06-01T08:56:55.000Z</time>
      </trkpt>
      <trkpt lat="50.59724" lon="4.53441">
        <ele>84.8</ele>
        <time>2015-06-01T08:56:59.000Z</time>
      </trkpt>
      <trkpt lat="50.59714" lon="4.53433">
        <ele>86</ele>
        <time>2015-06-01T08:57:07.000Z</time>
      </trkpt>
      <trkpt lat="50.59708" lon="4.53427">
        <ele>86.2</ele>
        <time>2015-06-01T08:57:12.000Z</time>
      </trkpt>
      <trkpt lat="50.597" lon="4.53419">
        <ele>85.3</ele>
        <time>2015-06-01T08:57:19.000Z</time>
      </trkpt>
      <trkpt lat="50.59696" lon="4.5341">
        <ele>84.9</ele>
        <time>2015-06-01T08:57:26.000Z</time>
      </trkpt>
      <trkpt lat="50.59692" lon="4.53405">
        <ele>85.5</ele>
        <time>2015-06-01T08:57:30.000Z</time>
      </trkpt>
      <trkpt lat="50.59682" lon="4.5339">
        <ele>86</ele>
        <time>2015-06-01T08:57:38.000Z</time>
      </trkpt>
      <trkpt lat="50.59674" lon="4.53384">
        <ele>86.3</ele>
        <time>2015-06-01T08:57:43.000Z</time>
      </trkpt>
      <trkpt lat="50.59666" lon="4.53372">
        <ele>86.4</ele>
        <time>2015-06-01T08:57:50.000Z</time>
      </trkpt>
      <trkpt lat="50.59663" lon="4.53366">
        <ele>86.5</ele>
        <time>2015-06-01T08:57:53.000Z</time>
      </trkpt>
      <trkpt lat="50.59655" lon="4.5335">
        <ele>87</ele>
        <time>2015-06-01T08:58:00.000Z</time>
      </trkpt>
      <trkpt lat="50.59654" lon="4.53346">
        <ele>87.2</ele>
        <time>2015-06-01T08:58:02.000Z</time>
      </trkpt>
      <trkpt lat="50.59656" lon="4.53341">
        <ele>87.4</ele>
        <time>2015-06-01T08:58:06.000Z</time>
      </trkpt>
      <trkpt lat="50.59656" lon="4.53338">
        <ele>87.5</ele>
        <time>2015-06-01T08:58:08.000Z</time>
      </trkpt>
      <trkpt lat="50.59661" lon="4.53326">
        <ele>87.8</ele>
        <time>2015-06-01T08:58:17.000Z</time>
      </trkpt>
      <trkpt lat="50.5966" lon="4.5332">
        <ele>88.2</ele>
        <time>2015-06-01T08:58:27.000Z</time>
      </trkpt>
      <trkpt lat="50.59663" lon="4.53311">
        <ele>88.7</ele>
        <time>2015-06-01T09:00:06.000Z</time>
      </trkpt>
      <trkpt lat="50.59669" lon="4.53306">
        <ele>88.8</ele>
        <time>2015-06-01T09:00:13.000Z</time>
      </trkpt>
      <trkpt lat="50.59677" lon="4.53298">
        <ele>88.7</ele>
        <time>2015-06-01T09:00:21.000Z</time>
      </trkpt>
      <trkpt lat="50.59683" lon="4.5329">
        <ele>89.1</ele>
        <time>2015-06-01T09:00:28.000Z</time>
      </trkpt>
      <trkpt lat="50.59684" lon="4.53272">
        <ele>90.2</ele>
        <time>2015-06-01T09:00:37.000Z</time>
      </trkpt>
      <trkpt lat="50.59683" lon="4.53261">
        <ele>90.6</ele>
        <time>2015-06-01T09:00:42.000Z</time>
      </trkpt>
      <trkpt lat="50.59683" lon="4.53259">
        <ele>90.7</ele>
        <time>2015-06-01T09:00:47.000Z</time>
      </trkpt>
      <trkpt lat="50.59682" lon="4.53258">
        <ele>90.7</ele>
        <time>2015-06-01T09:00:48.000Z</time>
      </trkpt>
      <trkpt lat="50.5968" lon="4.53248">
        <ele>91.1</ele>
        <time>2015-06-01T09:00:53.000Z</time>
      </trkpt>
      <trkpt lat="50.5967" lon="4.53229">
        <ele>91.2</ele>
        <time>2015-06-01T09:01:03.000Z</time>
      </trkpt>
      <trkpt lat="50.5966" lon="4.53215">
        <ele>91</ele>
        <time>2015-06-01T09:01:12.000Z</time>
      </trkpt>
      <trkpt lat="50.59657" lon="4.53212">
        <ele>90.9</ele>
        <time>2015-06-01T09:01:14.000Z</time>
      </trkpt>
      <trkpt lat="50.59647" lon="4.53198">
        <ele>90.7</ele>
        <time>2015-06-01T09:01:22.000Z</time>
      </trkpt>
      <trkpt lat="50.59639" lon="4.53188">
        <ele>90.2</ele>
        <time>2015-06-01T09:01:29.000Z</time>
      </trkpt>
      <trkpt lat="50.59639" lon="4.53178">
        <ele>90.6</ele>
        <time>2015-06-01T09:01:34.000Z</time>
      </trkpt>
      <trkpt lat="50.59632" lon="4.53161">
        <ele>90.8</ele>
        <time>2015-06-01T09:01:42.000Z</time>
      </trkpt>
      <trkpt lat="50.59624" lon="4.53141">
        <ele>91.3</ele>
        <time>2015-06-01T09:01:51.000Z</time>
      </trkpt>
      <trkpt lat="50.59623" lon="4.5313">
        <ele>91.6</ele>
        <time>2015-06-01T09:01:56.000Z</time>
      </trkpt>
      <trkpt lat="50.59627" lon="4.53128">
        <ele>91.8</ele>
        <time>2015-06-01T09:02:00.000Z</time>
      </trkpt>
      <trkpt lat="50.59639" lon="4.53132">
        <ele>92.2</ele>
        <time>2015-06-01T09:02:08.000Z</time>
      </trkpt>
      <trkpt lat="50.59646" lon="4.53138">
        <ele>93.3</ele>
        <time>2015-06-01T09:02:13.000Z</time>
      </trkpt>
      <trkpt lat="50.59651" lon="4.53143">
        <ele>93.9</ele>
        <time>2015-06-01T09:02:18.000Z</time>
      </trkpt>
      <trkpt lat="50.59659" lon="4.53147">
        <ele>95.3</ele>
        <time>2015-06-01T09:02:26.000Z</time>
      </trkpt>
      <trkpt lat="50.59668" lon="4.53147">
        <ele>96.9</ele>
        <time>2015-06-01T09:02:31.000Z</time>
      </trkpt>
      <trkpt lat="50.59679" lon="4.53144">
        <ele>98.3</ele>
        <time>2015-06-01T09:02:38.000Z</time>
      </trkpt>
      <trkpt lat="50.59686" lon="4.53143">
        <ele>99.1</ele>
        <time>2015-06-01T09:02:44.000Z</time>
      </trkpt>
      <trkpt lat="50.5969" lon="4.53143">
        <ele>99.6</ele>
        <time>2015-06-01T09:02:51.000Z</time>
      </trkpt>
      <trkpt lat="50.59699" lon="4.5314">
        <ele>101.1</ele>
        <time>2015-06-01T09:03:23.000Z</time>
      </trkpt>
      <trkpt lat="50.59705" lon="4.53138">
        <ele>102.3</ele>
        <time>2015-06-01T09:03:30.000Z</time>
      </trkpt>
      <trkpt lat="50.59715" lon="4.53138">
        <ele>104.6</ele>
        <time>2015-06-01T09:03:40.000Z</time>
      </trkpt>
      <trkpt lat="50.59723" lon="4.53136">
        <ele>106.2</ele>
        <time>2015-06-01T09:03:46.000Z</time>
      </trkpt>
      <trkpt lat="50.5973" lon="4.53133">
        <ele>107.1</ele>
        <time>2015-06-01T09:03:52.000Z</time>
      </trkpt>
      <trkpt lat="50.59738" lon="4.5313">
        <ele>108.1</ele>
        <time>2015-06-01T09:03:59.000Z</time>
      </trkpt>
      <trkpt lat="50.59748" lon="4.53126">
        <ele>109.2</ele>
        <time>2015-06-01T09:04:06.000Z</time>
      </trkpt>
      <trkpt lat="50.59755" lon="4.5312">
        <ele>109.9</ele>
        <time>2015-06-01T09:04:12.000Z</time>
      </trkpt>
      <trkpt lat="50.59757" lon="4.53119">
        <ele>110</ele>
        <time>2015-06-01T09:04:13.000Z</time>
      </trkpt>
      <trkpt lat="50.59762" lon="4.53116">
        <ele>110.3</ele>
        <time>2015-06-01T09:04:18.000Z</time>
      </trkpt>
      <trkpt lat="50.59771" lon="4.53109">
        <ele>110.9</ele>
        <time>2015-06-01T09:04:26.000Z</time>
      </trkpt>
      <trkpt lat="50.59778" lon="4.53105">
        <ele>111.5</ele>
        <time>2015-06-01T09:04:32.000Z</time>
      </trkpt>
      <trkpt lat="50.5978" lon="4.53103">
        <ele>111.7</ele>
        <time>2015-06-01T09:04:33.000Z</time>
      </trkpt>
      <trkpt lat="50.59789" lon="4.53097">
        <ele>112.8</ele>
        <time>2015-06-01T09:04:40.000Z</time>
      </trkpt>
      <trkpt lat="50.59796" lon="4.53094">
        <ele>113.4</ele>
        <time>2015-06-01T09:04:45.000Z</time>
      </trkpt>
      <trkpt lat="50.59806" lon="4.53087">
        <ele>114.1</ele>
        <time>2015-06-01T09:04:53.000Z</time>
      </trkpt>
      <trkpt lat="50.59813" lon="4.53082">
        <ele>114.6</ele>
        <time>2015-06-01T09:04:58.000Z</time>
      </trkpt>
      <trkpt lat="50.59818" lon="4.53079">
        <ele>115.2</ele>
        <time>2015-06-01T09:05:02.000Z</time>
      </trkpt>
      <trkpt lat="50.59826" lon="4.53074">
        <ele>115.9</ele>
        <time>2015-06-01T09:05:09.000Z</time>
      </trkpt>
      <trkpt lat="50.59828" lon="4.53072">
        <ele>116.1</ele>
        <time>2015-06-01T09:05:12.000Z</time>
      </trkpt>
      <trkpt lat="50.5983" lon="4.53067">
        <ele>116.4</ele>
        <time>2015-06-01T09:05:16.000Z</time>
      </trkpt>
      <trkpt lat="50.59837" lon="4.53063">
        <ele>116.9</ele>
        <time>2015-06-01T09:05:21.000Z</time>
      </trkpt>
      <trkpt lat="50.59844" lon="4.53057">
        <ele>117.3</ele>
        <time>2015-06-01T09:05:27.000Z</time>
      </trkpt>
      <trkpt lat="50.59846" lon="4.53056">
        <ele>117.4</ele>
        <time>2015-06-01T09:05:28.000Z</time>
      </trkpt>
      <trkpt lat="50.59853" lon="4.5305">
        <ele>118</ele>
        <time>2015-06-01T09:05:34.000Z</time>
      </trkpt>
      <trkpt lat="50.59863" lon="4.53042">
        <ele>118.5</ele>
        <time>2015-06-01T09:05:42.000Z</time>
      </trkpt>
      <trkpt lat="50.59868" lon="4.5304">
        <ele>118.7</ele>
        <time>2015-06-01T09:05:46.000Z</time>
      </trkpt>
      <trkpt lat="50.5987" lon="4.53038">
        <ele>118.8</ele>
        <time>2015-06-01T09:05:48.000Z</time>
      </trkpt>
      <trkpt lat="50.59878" lon="4.53031">
        <ele>119</ele>
        <time>2015-06-01T09:05:55.000Z</time>
      </trkpt>
      <trkpt lat="50.59886" lon="4.53024">
        <ele>119.3</ele>
        <time>2015-06-01T09:06:02.000Z</time>
      </trkpt>
      <trkpt lat="50.59887" lon="4.53023">
        <ele>119.3</ele>
        <time>2015-06-01T09:06:03.000Z</time>
      </trkpt>
      <trkpt lat="50.59891" lon="4.5302">
        <ele>119.6</ele>
        <time>2015-06-01T09:06:07.000Z</time>
      </trkpt>
      <trkpt lat="50.59898" lon="4.53013">
        <ele>120.2</ele>
        <time>2015-06-01T09:06:13.000Z</time>
      </trkpt>
      <trkpt lat="50.59904" lon="4.53008">
        <ele>120.6</ele>
        <time>2015-06-01T09:06:18.000Z</time>
      </trkpt>
      <trkpt lat="50.59914" lon="4.53">
        <ele>121</ele>
        <time>2015-06-01T09:06:25.000Z</time>
      </trkpt>
      <trkpt lat="50.59924" lon="4.52992">
        <ele>121.9</ele>
        <time>2015-06-01T09:06:33.000Z</time>
      </trkpt>
      <trkpt lat="50.59932" lon="4.52988">
        <ele>122.4</ele>
        <time>2015-06-01T09:06:39.000Z</time>
      </trkpt>
      <trkpt lat="50.59942" lon="4.52987">
        <ele>122.9</ele>
        <time>2015-06-01T09:06:46.000Z</time>
      </trkpt>
      <trkpt lat="50.59955" lon="4.52986">
        <ele>123</ele>
        <time>2015-06-01T09:06:54.000Z</time>
      </trkpt>
      <trkpt lat="50.59965" lon="4.52987">
        <ele>123</ele>
        <time>2015-06-01T09:07:01.000Z</time>
      </trkpt>
      <trkpt lat="50.59975" lon="4.52987">
        <ele>123</ele>
        <time>2015-06-01T09:07:08.000Z</time>
      </trkpt>
      <trkpt lat="50.59985" lon="4.52987">
        <ele>123.1</ele>
        <time>2015-06-01T09:07:15.000Z</time>
      </trkpt>
      <trkpt lat="50.59998" lon="4.52988">
        <ele>123.3</ele>
        <time>2015-06-01T09:07:24.000Z</time>
      </trkpt>
      <trkpt lat="50.60007" lon="4.52987">
        <ele>123.6</ele>
        <time>2015-06-01T09:07:30.000Z</time>
      </trkpt>
      <trkpt lat="50.60014" lon="4.52987">
        <ele>123.7</ele>
        <time>2015-06-01T09:07:35.000Z</time>
      </trkpt>
      <trkpt lat="50.60026" lon="4.52986">
        <ele>123.9</ele>
        <time>2015-06-01T09:07:42.000Z</time>
      </trkpt>
      <trkpt lat="50.6004" lon="4.52986">
        <ele>124.4</ele>
        <time>2015-06-01T09:07:51.000Z</time>
      </trkpt>
      <trkpt lat="50.60049" lon="4.52987">
        <ele>124.7</ele>
        <time>2015-06-01T09:07:58.000Z</time>
      </trkpt>
      <trkpt lat="50.60057" lon="4.52988">
        <ele>124.9</ele>
        <time>2015-06-01T09:08:04.000Z</time>
      </trkpt>
      <trkpt lat="50.6006" lon="4.52988">
        <ele>124.8</ele>
        <time>2015-06-01T09:08:07.000Z</time>
      </trkpt>
      <trkpt lat="50.6007" lon="4.52986">
        <ele>124.7</ele>
        <time>2015-06-01T09:08:15.000Z</time>
      </trkpt>
      <trkpt lat="50.60081" lon="4.52986">
        <ele>124.5</ele>
        <time>2015-06-01T09:08:23.000Z</time>
      </trkpt>
      <trkpt lat="50.60089" lon="4.52986">
        <ele>124.5</ele>
        <time>2015-06-01T09:08:30.000Z</time>
      </trkpt>
      <trkpt lat="50.60092" lon="4.52985">
        <ele>124.5</ele>
        <time>2015-06-01T09:08:32.000Z</time>
      </trkpt>
      <trkpt lat="50.60104" lon="4.52985">
        <ele>124.5</ele>
        <time>2015-06-01T09:08:40.000Z</time>
      </trkpt>
      <trkpt lat="50.60116" lon="4.52986">
        <ele>124.3</ele>
        <time>2015-06-01T09:08:47.000Z</time>
      </trkpt>
      <trkpt lat="50.60127" lon="4.52984">
        <ele>123.9</ele>
        <time>2015-06-01T09:08:54.000Z</time>
      </trkpt>
      <trkpt lat="50.60138" lon="4.52986">
        <ele>123.5</ele>
        <time>2015-06-01T09:09:01.000Z</time>
      </trkpt>
      <trkpt lat="50.60142" lon="4.52985">
        <ele>123.5</ele>
        <time>2015-06-01T09:09:04.000Z</time>
      </trkpt>
      <trkpt lat="50.60149" lon="4.52988">
        <ele>123.5</ele>
        <time>2015-06-01T09:09:08.000Z</time>
      </trkpt>
      <trkpt lat="50.60153" lon="4.52992">
        <ele>123.2</ele>
        <time>2015-06-01T09:09:14.000Z</time>
      </trkpt>
      <trkpt lat="50.60166" lon="4.53002">
        <ele>122.1</ele>
        <time>2015-06-01T09:09:22.000Z</time>
      </trkpt>
      <trkpt lat="50.60174" lon="4.53009">
        <ele>122.5</ele>
        <time>2015-06-01T09:09:28.000Z</time>
      </trkpt>
      <trkpt lat="50.60186" lon="4.53018">
        <ele>122.3</ele>
        <time>2015-06-01T09:09:36.000Z</time>
      </trkpt>
      <trkpt lat="50.60199" lon="4.53024">
        <ele>121.5</ele>
        <time>2015-06-01T09:09:45.000Z</time>
      </trkpt>
      <trkpt lat="50.60206" lon="4.5303">
        <ele>121.4</ele>
        <time>2015-06-01T09:09:51.000Z</time>
      </trkpt>
      <trkpt lat="50.60218" lon="4.53036">
        <ele>121.3</ele>
        <time>2015-06-01T09:09:59.000Z</time>
      </trkpt>
      <trkpt lat="50.60227" lon="4.53043">
        <ele>120.8</ele>
        <time>2015-06-01T09:10:06.000Z</time>
      </trkpt>
      <trkpt lat="50.60237" lon="4.53049">
        <ele>120.1</ele>
        <time>2015-06-01T09:10:12.000Z</time>
      </trkpt>
      <trkpt lat="50.60248" lon="4.53056">
        <ele>119.1</ele>
        <time>2015-06-01T09:10:20.000Z</time>
      </trkpt>
      <trkpt lat="50.60257" lon="4.53063">
        <ele>119.1</ele>
        <time>2015-06-01T09:10:27.000Z</time>
      </trkpt>
      <trkpt lat="50.60266" lon="4.5307">
        <ele>119</ele>
        <time>2015-06-01T09:10:34.000Z</time>
      </trkpt>
      <trkpt lat="50.60276" lon="4.53077">
        <ele>118.5</ele>
        <time>2015-06-01T09:10:41.000Z</time>
      </trkpt>
      <trkpt lat="50.60279" lon="4.53078">
        <ele>118.3</ele>
        <time>2015-06-01T09:10:43.000Z</time>
      </trkpt>
      <trkpt lat="50.60288" lon="4.53084">
        <ele>117.6</ele>
        <time>2015-06-01T09:10:50.000Z</time>
      </trkpt>
      <trkpt lat="50.60297" lon="4.53089">
        <ele>117</ele>
        <time>2015-06-01T09:10:57.000Z</time>
      </trkpt>
      <trkpt lat="50.60299" lon="4.5309">
        <ele>116.9</ele>
        <time>2015-06-01T09:10:58.000Z</time>
      </trkpt>
      <trkpt lat="50.60309" lon="4.53093">
        <ele>116.2</ele>
        <time>2015-06-01T09:11:05.000Z</time>
      </trkpt>
      <trkpt lat="50.60317" lon="4.53096">
        <ele>115.9</ele>
        <time>2015-06-01T09:11:11.000Z</time>
      </trkpt>
      <trkpt lat="50.60327" lon="4.53099">
        <ele>115.5</ele>
        <time>2015-06-01T09:11:18.000Z</time>
      </trkpt>
      <trkpt lat="50.60333" lon="4.531">
        <ele>115.4</ele>
        <time>2015-06-01T09:11:22.000Z</time>
      </trkpt>
      <trkpt lat="50.60336" lon="4.53095">
        <ele>115.5</ele>
        <time>2015-06-01T09:11:26.000Z</time>
      </trkpt>
      <trkpt lat="50.60343" lon="4.53078">
        <ele>115.7</ele>
        <time>2015-06-01T09:11:36.000Z</time>
      </trkpt>
      <trkpt lat="50.60358" lon="4.53061">
        <ele>114.5</ele>
        <time>2015-06-01T09:11:48.000Z</time>
      </trkpt>
      <trkpt lat="50.60365" lon="4.53052">
        <ele>113.4</ele>
        <time>2015-06-01T09:11:55.000Z</time>
      </trkpt>
      <trkpt lat="50.60376" lon="4.53042">
        <ele>111</ele>
        <time>2015-06-01T09:12:03.000Z</time>
      </trkpt>
      <trkpt lat="50.60382" lon="4.53034">
        <ele>109.3</ele>
        <time>2015-06-01T09:12:10.000Z</time>
      </trkpt>
      <trkpt lat="50.60388" lon="4.53029">
        <ele>107.3</ele>
        <time>2015-06-01T09:12:16.000Z</time>
      </trkpt>
      <trkpt lat="50.60391" lon="4.53028">
        <ele>106.7</ele>
        <time>2015-06-01T09:12:18.000Z</time>
      </trkpt>
      <trkpt lat="50.60395" lon="4.53019">
        <ele>105.7</ele>
        <time>2015-06-01T09:12:24.000Z</time>
      </trkpt>
      <trkpt lat="50.60399" lon="4.53006">
        <ele>104.1</ele>
        <time>2015-06-01T09:12:32.000Z</time>
      </trkpt>
      <trkpt lat="50.60406" lon="4.52992">
        <ele>101.3</ele>
        <time>2015-06-01T09:12:40.000Z</time>
      </trkpt>
      <trkpt lat="50.60407" lon="4.52986">
        <ele>100.5</ele>
        <time>2015-06-01T09:12:43.000Z</time>
      </trkpt>
      <trkpt lat="50.60412" lon="4.52976">
        <ele>98.3</ele>
        <time>2015-06-01T09:12:49.000Z</time>
      </trkpt>
      <trkpt lat="50.60414" lon="4.52972">
        <ele>97.5</ele>
        <time>2015-06-01T09:12:51.000Z</time>
      </trkpt>
      <trkpt lat="50.60419" lon="4.52961">
        <ele>95.6</ele>
        <time>2015-06-01T09:12:57.000Z</time>
      </trkpt>
      <trkpt lat="50.60425" lon="4.5295">
        <ele>93.7</ele>
        <time>2015-06-01T09:13:04.000Z</time>
      </trkpt>
      <trkpt lat="50.60432" lon="4.52938">
        <ele>91.9</ele>
        <time>2015-06-01T09:13:10.000Z</time>
      </trkpt>
      <trkpt lat="50.60438" lon="4.52925">
        <ele>90.3</ele>
        <time>2015-06-01T09:13:16.000Z</time>
      </trkpt>
      <trkpt lat="50.60441" lon="4.5292">
        <ele>89.6</ele>
        <time>2015-06-01T09:13:21.000Z</time>
      </trkpt>
      <trkpt lat="50.60444" lon="4.52913">
        <ele>88.8</ele>
        <time>2015-06-01T09:13:26.000Z</time>
      </trkpt>
      <trkpt lat="50.60445" lon="4.52907">
        <ele>88.1</ele>
        <time>2015-06-01T09:13:29.000Z</time>
      </trkpt>
      <trkpt lat="50.60446" lon="4.52901">
        <ele>87.4</ele>
        <time>2015-06-01T09:13:34.000Z</time>
      </trkpt>
      <trkpt lat="50.60447" lon="4.52892">
        <ele>86.7</ele>
        <time>2015-06-01T09:13:39.000Z</time>
      </trkpt>
      <trkpt lat="50.60449" lon="4.52876">
        <ele>85.3</ele>
        <time>2015-06-01T09:13:46.000Z</time>
      </trkpt>
      <trkpt lat="50.60451" lon="4.52869">
        <ele>84.6</ele>
        <time>2015-06-01T09:13:50.000Z</time>
      </trkpt>
      <trkpt lat="50.60457" lon="4.52863">
        <ele>83.7</ele>
        <time>2015-06-01T09:13:56.000Z</time>
      </trkpt>
      <trkpt lat="50.60459" lon="4.52858">
        <ele>83.4</ele>
        <time>2015-06-01T09:13:59.000Z</time>
      </trkpt>
      <trkpt lat="50.60464" lon="4.52845">
        <ele>83</ele>
        <time>2015-06-01T09:14:06.000Z</time>
      </trkpt>
      <trkpt lat="50.60468" lon="4.52833">
        <ele>82.6</ele>
        <time>2015-06-01T09:14:11.000Z</time>
      </trkpt>
      <trkpt lat="50.60468" lon="4.52825">
        <ele>82.5</ele>
        <time>2015-06-01T09:14:15.000Z</time>
      </trkpt>
      <trkpt lat="50.6047" lon="4.52815">
        <ele>82.3</ele>
        <time>2015-06-01T09:14:21.000Z</time>
      </trkpt>
      <trkpt lat="50.60471" lon="4.5281">
        <ele>82.2</ele>
        <time>2015-06-01T09:14:23.000Z</time>
      </trkpt>
      <trkpt lat="50.60473" lon="4.52797">
        <ele>82</ele>
        <time>2015-06-01T09:14:29.000Z</time>
      </trkpt>
      <trkpt lat="50.60474" lon="4.52791">
        <ele>82</ele>
        <time>2015-06-01T09:14:32.000Z</time>
      </trkpt>
      <trkpt lat="50.60478" lon="4.52778">
        <ele>82</ele>
        <time>2015-06-01T09:14:38.000Z</time>
      </trkpt>
      <trkpt lat="50.60479" lon="4.52776">
        <ele>82</ele>
        <time>2015-06-01T09:14:39.000Z</time>
      </trkpt>
      <trkpt lat="50.6048" lon="4.52772">
        <ele>82</ele>
        <time>2015-06-01T09:14:41.000Z</time>
      </trkpt>
      <trkpt lat="50.60484" lon="4.52759">
        <ele>82</ele>
        <time>2015-06-01T09:14:48.000Z</time>
      </trkpt>
      <trkpt lat="50.60483" lon="4.5275">
        <ele>82</ele>
        <time>2015-06-01T09:14:51.000Z</time>
      </trkpt>
      <trkpt lat="50.60484" lon="4.52732">
        <ele>82</ele>
        <time>2015-06-01T09:14:59.000Z</time>
      </trkpt>
      <trkpt lat="50.60483" lon="4.52721">
        <ele>82</ele>
        <time>2015-06-01T09:15:05.000Z</time>
      </trkpt>
      <trkpt lat="50.60483" lon="4.52714">
        <ele>82</ele>
        <time>2015-06-01T09:15:09.000Z</time>
      </trkpt>
      <trkpt lat="50.60483" lon="4.52702">
        <ele>82</ele>
        <time>2015-06-01T09:15:15.000Z</time>
      </trkpt>
      <trkpt lat="50.60482" lon="4.52696">
        <ele>82</ele>
        <time>2015-06-01T09:15:18.000Z</time>
      </trkpt>
      <trkpt lat="50.60483" lon="4.52687">
        <ele>82</ele>
        <time>2015-06-01T09:15:22.000Z</time>
      </trkpt>
      <trkpt lat="50.60485" lon="4.52673">
        <ele>82</ele>
        <time>2015-06-01T09:15:28.000Z</time>
      </trkpt>
      <trkpt lat="50.60485" lon="4.52667">
        <ele>82</ele>
        <time>2015-06-01T09:15:30.000Z</time>
      </trkpt>
      <trkpt lat="50.60487" lon="4.52653">
        <ele>82.3</ele>
        <time>2015-06-01T09:15:36.000Z</time>
      </trkpt>
      <trkpt lat="50.60488" lon="4.52643">
        <ele>82.5</ele>
        <time>2015-06-01T09:15:41.000Z</time>
      </trkpt>
      <trkpt lat="50.60488" lon="4.52638">
        <ele>82.6</ele>
        <time>2015-06-01T09:15:44.000Z</time>
      </trkpt>
      <trkpt lat="50.60486" lon="4.52637">
        <ele>82.5</ele>
        <time>2015-06-01T09:15:47.000Z</time>
      </trkpt>
      <trkpt lat="50.60484" lon="4.52632">
        <ele>82.4</ele>
        <time>2015-06-01T09:15:52.000Z</time>
      </trkpt>
      <trkpt lat="50.60483" lon="4.5263">
        <ele>82.4</ele>
        <time>2015-06-01T09:15:54.000Z</time>
      </trkpt>
      <trkpt lat="50.60481" lon="4.52625">
        <ele>82.3</ele>
        <time>2015-06-01T09:15:58.000Z</time>
      </trkpt>
      <trkpt lat="50.60477" lon="4.52616">
        <ele>82.2</ele>
        <time>2015-06-01T09:16:02.000Z</time>
      </trkpt>
      <trkpt lat="50.60476" lon="4.526">
        <ele>82.2</ele>
        <time>2015-06-01T09:16:08.000Z</time>
      </trkpt>
      <trkpt lat="50.60472" lon="4.52585">
        <ele>82</ele>
        <time>2015-06-01T09:16:14.000Z</time>
      </trkpt>
      <trkpt lat="50.60474" lon="4.52574">
        <ele>82.4</ele>
        <time>2015-06-01T09:16:18.000Z</time>
      </trkpt>
      <trkpt lat="50.60469" lon="4.52561">
        <ele>82.8</ele>
        <time>2015-06-01T09:16:24.000Z</time>
      </trkpt>
      <trkpt lat="50.60467" lon="4.52547">
        <ele>83</ele>
        <time>2015-06-01T09:16:30.000Z</time>
      </trkpt>
      <trkpt lat="50.60468" lon="4.52541">
        <ele>83</ele>
        <time>2015-06-01T09:16:33.000Z</time>
      </trkpt>
      <trkpt lat="50.60471" lon="4.52529">
        <ele>83</ele>
        <time>2015-06-01T09:16:38.000Z</time>
      </trkpt>
      <trkpt lat="50.60471" lon="4.52518">
        <ele>83</ele>
        <time>2015-06-01T09:16:43.000Z</time>
      </trkpt>
      <trkpt lat="50.60471" lon="4.52516">
        <ele>83</ele>
        <time>2015-06-01T09:16:44.000Z</time>
      </trkpt>
      <trkpt lat="50.60466" lon="4.52504">
        <ele>83</ele>
        <time>2015-06-01T09:16:49.000Z</time>
      </trkpt>
      <trkpt lat="50.60464" lon="4.52497">
        <ele>83</ele>
        <time>2015-06-01T09:16:53.000Z</time>
      </trkpt>
      <trkpt lat="50.60461" lon="4.52486">
        <ele>83</ele>
        <time>2015-06-01T09:16:58.000Z</time>
      </trkpt>
      <trkpt lat="50.60459" lon="4.52473">
        <ele>83</ele>
        <time>2015-06-01T09:17:04.000Z</time>
      </trkpt>
      <trkpt lat="50.60458" lon="4.52465">
        <ele>83.1</ele>
        <time>2015-06-01T09:17:08.000Z</time>
      </trkpt>
      <trkpt lat="50.60459" lon="4.52459">
        <ele>83.3</ele>
        <time>2015-06-01T09:17:10.000Z</time>
      </trkpt>
      <trkpt lat="50.60455" lon="4.52443">
        <ele>83.4</ele>
        <time>2015-06-01T09:17:16.000Z</time>
      </trkpt>
      <trkpt lat="50.60453" lon="4.52431">
        <ele>83.3</ele>
        <time>2015-06-01T09:17:22.000Z</time>
      </trkpt>
      <trkpt lat="50.6045" lon="4.52417">
        <ele>83.2</ele>
        <time>2015-06-01T09:17:28.000Z</time>
      </trkpt>
      <trkpt lat="50.60446" lon="4.52403">
        <ele>83.1</ele>
        <time>2015-06-01T09:17:34.000Z</time>
      </trkpt>
      <trkpt lat="50.60445" lon="4.524">
        <ele>83</ele>
        <time>2015-06-01T09:17:35.000Z</time>
      </trkpt>
      <trkpt lat="50.60441" lon="4.52382">
        <ele>83.2</ele>
        <time>2015-06-01T09:17:43.000Z</time>
      </trkpt>
      <trkpt lat="50.60437" lon="4.5237">
        <ele>83.5</ele>
        <time>2015-06-01T09:17:50.000Z</time>
      </trkpt>
      <trkpt lat="50.60434" lon="4.52363">
        <ele>83.6</ele>
        <time>2015-06-01T09:17:55.000Z</time>
      </trkpt>
      <trkpt lat="50.6043" lon="4.52359">
        <ele>83.5</ele>
        <time>2015-06-01T09:17:57.000Z</time>
      </trkpt>
      <trkpt lat="50.60431" lon="4.52347">
        <ele>83.8</ele>
        <time>2015-06-01T09:18:03.000Z</time>
      </trkpt>
      <trkpt lat="50.60431" lon="4.52345">
        <ele>83.8</ele>
        <time>2015-06-01T09:18:04.000Z</time>
      </trkpt>
      <trkpt lat="50.60431" lon="4.52333">
        <ele>84</ele>
        <time>2015-06-01T09:18:09.000Z</time>
      </trkpt>
      <trkpt lat="50.60428" lon="4.52324">
        <ele>84.1</ele>
        <time>2015-06-01T09:18:13.000Z</time>
      </trkpt>
      <trkpt lat="50.60421" lon="4.52309">
        <ele>84.1</ele>
        <time>2015-06-01T09:18:19.000Z</time>
      </trkpt>
      <trkpt lat="50.60419" lon="4.523">
        <ele>84.1</ele>
        <time>2015-06-01T09:18:22.000Z</time>
      </trkpt>
      <trkpt lat="50.60417" lon="4.52292">
        <ele>84</ele>
        <time>2015-06-01T09:18:26.000Z</time>
      </trkpt>
      <trkpt lat="50.60411" lon="4.52286">
        <ele>83.9</ele>
        <time>2015-06-01T09:18:30.000Z</time>
      </trkpt>
      <trkpt lat="50.60411" lon="4.52269">
        <ele>84</ele>
        <time>2015-06-01T09:18:38.000Z</time>
      </trkpt>
      <trkpt lat="50.60407" lon="4.5226">
        <ele>84</ele>
        <time>2015-06-01T09:18:43.000Z</time>
      </trkpt>
      <trkpt lat="50.60404" lon="4.52251">
        <ele>84</ele>
        <time>2015-06-01T09:18:48.000Z</time>
      </trkpt>
      <trkpt lat="50.60403" lon="4.52245">
        <ele>84.1</ele>
        <time>2015-06-01T09:18:52.000Z</time>
      </trkpt>
      <trkpt lat="50.604" lon="4.52238">
        <ele>84.2</ele>
        <time>2015-06-01T09:18:56.000Z</time>
      </trkpt>
      <trkpt lat="50.60397" lon="4.52232">
        <ele>84.2</ele>
        <time>2015-06-01T09:18:58.000Z</time>
      </trkpt>
      <trkpt lat="50.60392" lon="4.52229">
        <ele>84.1</ele>
        <time>2015-06-01T09:19:02.000Z</time>
      </trkpt>
      <trkpt lat="50.6039" lon="4.52229">
        <ele>84</ele>
        <time>2015-06-01T09:19:05.000Z</time>
      </trkpt>
      <trkpt lat="50.60387" lon="4.5223">
        <ele>84</ele>
        <time>2015-06-01T09:19:10.000Z</time>
      </trkpt>
      <trkpt lat="50.60382" lon="4.52228">
        <ele>84</ele>
        <time>2015-06-01T09:19:14.000Z</time>
      </trkpt>
      <trkpt lat="50.60379" lon="4.52226">
        <ele>84</ele>
        <time>2015-06-01T09:19:16.000Z</time>
      </trkpt>
      <trkpt lat="50.60373" lon="4.52225">
        <ele>84</ele>
        <time>2015-06-01T09:19:20.000Z</time>
      </trkpt>
      <trkpt lat="50.60363" lon="4.52221">
        <ele>84</ele>
        <time>2015-06-01T09:19:27.000Z</time>
      </trkpt>
      <trkpt lat="50.60355" lon="4.52218">
        <ele>84.5</ele>
        <time>2015-06-01T09:19:32.000Z</time>
      </trkpt>
      <trkpt lat="50.60345" lon="4.52212">
        <ele>85.1</ele>
        <time>2015-06-01T09:19:39.000Z</time>
      </trkpt>
      <trkpt lat="50.60338" lon="4.52213">
        <ele>85.7</ele>
        <time>2015-06-01T09:19:44.000Z</time>
      </trkpt>
      <trkpt lat="50.60327" lon="4.52217">
        <ele>86.8</ele>
        <time>2015-06-01T09:19:51.000Z</time>
      </trkpt>
      <trkpt lat="50.60318" lon="4.52217">
        <ele>88.1</ele>
        <time>2015-06-01T09:19:58.000Z</time>
      </trkpt>
      <trkpt lat="50.60316" lon="4.52216">
        <ele>88.2</ele>
        <time>2015-06-01T09:19:59.000Z</time>
      </trkpt>
      <trkpt lat="50.60308" lon="4.52211">
        <ele>88.9</ele>
        <time>2015-06-01T09:20:05.000Z</time>
      </trkpt>
      <trkpt lat="50.60301" lon="4.52214">
        <ele>89.9</ele>
        <time>2015-06-01T09:20:13.000Z</time>
      </trkpt>
      <trkpt lat="50.60297" lon="4.52221">
        <ele>91.2</ele>
        <time>2015-06-01T09:20:18.000Z</time>
      </trkpt>
      <trkpt lat="50.60291" lon="4.52227">
        <ele>92.5</ele>
        <time>2015-06-01T09:20:25.000Z</time>
      </trkpt>
      <trkpt lat="50.60287" lon="4.52231">
        <ele>93.6</ele>
        <time>2015-06-01T09:20:32.000Z</time>
      </trkpt>
      <trkpt lat="50.60284" lon="4.52237">
        <ele>94.6</ele>
        <time>2015-06-01T09:20:36.000Z</time>
      </trkpt>
      <trkpt lat="50.60278" lon="4.52248">
        <ele>96.8</ele>
        <time>2015-06-01T09:20:44.000Z</time>
      </trkpt>
      <trkpt lat="50.60276" lon="4.52248">
        <ele>97.1</ele>
        <time>2015-06-01T09:20:46.000Z</time>
      </trkpt>
      <trkpt lat="50.60267" lon="4.52256">
        <ele>98.9</ele>
        <time>2015-06-01T09:20:53.000Z</time>
      </trkpt>
      <trkpt lat="50.60266" lon="4.52256">
        <ele>99.1</ele>
        <time>2015-06-01T09:20:54.000Z</time>
      </trkpt>
      <trkpt lat="50.60255" lon="4.52256">
        <ele>100.7</ele>
        <time>2015-06-01T09:21:02.000Z</time>
      </trkpt>
      <trkpt lat="50.6025" lon="4.52258">
        <ele>101.6</ele>
        <time>2015-06-01T09:21:06.000Z</time>
      </trkpt>
      <trkpt lat="50.60242" lon="4.52258">
        <ele>102.7</ele>
        <time>2015-06-01T09:21:14.000Z</time>
      </trkpt>
      <trkpt lat="50.60237" lon="4.52262">
        <ele>103.8</ele>
        <time>2015-06-01T09:21:22.000Z</time>
      </trkpt>
      <trkpt lat="50.60232" lon="4.52272">
        <ele>105.2</ele>
        <time>2015-06-01T09:21:28.000Z</time>
      </trkpt>
      <trkpt lat="50.60226" lon="4.52282">
        <ele>106.5</ele>
        <time>2015-06-01T09:21:35.000Z</time>
      </trkpt>
      <trkpt lat="50.60221" lon="4.52288">
        <ele>107.1</ele>
        <time>2015-06-01T09:21:41.000Z</time>
      </trkpt>
      <trkpt lat="50.60218" lon="4.52295">
        <ele>107.5</ele>
        <time>2015-06-01T09:21:48.000Z</time>
      </trkpt>
      <trkpt lat="50.60215" lon="4.523">
        <ele>108</ele>
        <time>2015-06-01T09:21:53.000Z</time>
      </trkpt>
      <trkpt lat="50.6021" lon="4.52308">
        <ele>108.6</ele>
        <time>2015-06-01T09:21:58.000Z</time>
      </trkpt>
      <trkpt lat="50.60203" lon="4.52321">
        <ele>108.7</ele>
        <time>2015-06-01T09:22:06.000Z</time>
      </trkpt>
      <trkpt lat="50.60202" lon="4.52322">
        <ele>108.7</ele>
        <time>2015-06-01T09:22:07.000Z</time>
      </trkpt>
      <trkpt lat="50.60194" lon="4.52329">
        <ele>109.5</ele>
        <time>2015-06-01T09:22:14.000Z</time>
      </trkpt>
      <trkpt lat="50.60185" lon="4.52329">
        <ele>110.6</ele>
        <time>2015-06-01T09:22:21.000Z</time>
      </trkpt>
      <trkpt lat="50.60184" lon="4.5233">
        <ele>110.7</ele>
        <time>2015-06-01T09:22:22.000Z</time>
      </trkpt>
      <trkpt lat="50.60177" lon="4.52331">
        <ele>111.7</ele>
        <time>2015-06-01T09:22:28.000Z</time>
      </trkpt>
      <trkpt lat="50.60167" lon="4.52332">
        <ele>112.9</ele>
        <time>2015-06-01T09:22:35.000Z</time>
      </trkpt>
      <trkpt lat="50.60158" lon="4.52337">
        <ele>113.8</ele>
        <time>2015-06-01T09:22:42.000Z</time>
      </trkpt>
      <trkpt lat="50.60157" lon="4.52338">
        <ele>114</ele>
        <time>2015-06-01T09:22:43.000Z</time>
      </trkpt>
      <trkpt lat="50.60147" lon="4.52335">
        <ele>115.1</ele>
        <time>2015-06-01T09:22:51.000Z</time>
      </trkpt>
      <trkpt lat="50.60142" lon="4.52333">
        <ele>115.7</ele>
        <time>2015-06-01T09:22:57.000Z</time>
      </trkpt>
      <trkpt lat="50.60134" lon="4.52332">
        <ele>116.5</ele>
        <time>2015-06-01T09:23:03.000Z</time>
      </trkpt>
      <trkpt lat="50.60125" lon="4.52333">
        <ele>117.5</ele>
        <time>2015-06-01T09:23:10.000Z</time>
      </trkpt>
      <trkpt lat="50.60117" lon="4.52333">
        <ele>118.4</ele>
        <time>2015-06-01T09:23:16.000Z</time>
      </trkpt>
      <trkpt lat="50.60105" lon="4.52332">
        <ele>119.7</ele>
        <time>2015-06-01T09:23:24.000Z</time>
      </trkpt>
      <trkpt lat="50.60104" lon="4.52333">
        <ele>119.8</ele>
        <time>2015-06-01T09:23:25.000Z</time>
      </trkpt>
      <trkpt lat="50.60095" lon="4.52334">
        <ele>120.7</ele>
        <time>2015-06-01T09:23:32.000Z</time>
      </trkpt>
      <trkpt lat="50.60088" lon="4.52338">
        <ele>121.6</ele>
        <time>2015-06-01T09:23:38.000Z</time>
      </trkpt>
      <trkpt lat="50.60084" lon="4.52339">
        <ele>122.2</ele>
        <time>2015-06-01T09:23:41.000Z</time>
      </trkpt>
      <trkpt lat="50.60075" lon="4.52341">
        <ele>123</ele>
        <time>2015-06-01T09:23:47.000Z</time>
      </trkpt>
      <trkpt lat="50.60064" lon="4.52341">
        <ele>123.9</ele>
        <time>2015-06-01T09:23:55.000Z</time>
      </trkpt>
      <trkpt lat="50.60056" lon="4.52343">
        <ele>124.7</ele>
        <time>2015-06-01T09:24:02.000Z</time>
      </trkpt>
      <trkpt lat="50.60048" lon="4.52342">
        <ele>125.3</ele>
        <time>2015-06-01T09:24:08.000Z</time>
      </trkpt>
      <trkpt lat="50.60039" lon="4.52343">
        <ele>126.3</ele>
        <time>2015-06-01T09:24:15.000Z</time>
      </trkpt>
      <trkpt lat="50.60031" lon="4.52342">
        <ele>127</ele>
        <time>2015-06-01T09:24:21.000Z</time>
      </trkpt>
      <trkpt lat="50.60021" lon="4.52341">
        <ele>127.8</ele>
        <time>2015-06-01T09:24:29.000Z</time>
      </trkpt>
      <trkpt lat="50.60009" lon="4.52343">
        <ele>128.7</ele>
        <time>2015-06-01T09:24:37.000Z</time>
      </trkpt>
      <trkpt lat="50.6" lon="4.52344">
        <ele>129.4</ele>
        <time>2015-06-01T09:24:44.000Z</time>
      </trkpt>
      <trkpt lat="50.59991" lon="4.52343">
        <ele>130</ele>
        <time>2015-06-01T09:24:51.000Z</time>
      </trkpt>
      <trkpt lat="50.59981" lon="4.52342">
        <ele>130.7</ele>
        <time>2015-06-01T09:24:59.000Z</time>
      </trkpt>
      <trkpt lat="50.59971" lon="4.52344">
        <ele>131.4</ele>
        <time>2015-06-01T09:25:07.000Z</time>
      </trkpt>
      <trkpt lat="50.5996" lon="4.52345">
        <ele>131.9</ele>
        <time>2015-06-01T09:25:15.000Z</time>
      </trkpt>
      <trkpt lat="50.59949" lon="4.52345">
        <ele>132.2</ele>
        <time>2015-06-01T09:25:24.000Z</time>
      </trkpt>
      <trkpt lat="50.5994" lon="4.52346">
        <ele>132.7</ele>
        <time>2015-06-01T09:25:32.000Z</time>
      </trkpt>
      <trkpt lat="50.59934" lon="4.52347">
        <ele>133.1</ele>
        <time>2015-06-01T09:25:42.000Z</time>
      </trkpt>
      <trkpt lat="50.59921" lon="4.52348">
        <ele>133.8</ele>
        <time>2015-06-01T09:25:51.000Z</time>
      </trkpt>
      <trkpt lat="50.59905" lon="4.52349">
        <ele>134</ele>
        <time>2015-06-01T09:26:02.000Z</time>
      </trkpt>
      <trkpt lat="50.59891" lon="4.52351">
        <ele>134</ele>
        <time>2015-06-01T09:26:12.000Z</time>
      </trkpt>
      <trkpt lat="50.59878" lon="4.52354">
        <ele>134.4</ele>
        <time>2015-06-01T09:26:21.000Z</time>
      </trkpt>
      <trkpt lat="50.59864" lon="4.52354">
        <ele>134.9</ele>
        <time>2015-06-01T09:26:31.000Z</time>
      </trkpt>
      <trkpt lat="50.59854" lon="4.52352">
        <ele>135.3</ele>
        <time>2015-06-01T09:26:39.000Z</time>
      </trkpt>
      <trkpt lat="50.59848" lon="4.5235">
        <ele>135.5</ele>
        <time>2015-06-01T09:26:45.000Z</time>
      </trkpt>
      <trkpt lat="50.59841" lon="4.52349">
        <ele>135.7</ele>
        <time>2015-06-01T09:26:54.000Z</time>
      </trkpt>
      <trkpt lat="50.59832" lon="4.52348">
        <ele>136</ele>
        <time>2015-06-01T09:27:01.000Z</time>
      </trkpt>
      <trkpt lat="50.59818" lon="4.52344">
        <ele>136</ele>
        <time>2015-06-01T09:27:11.000Z</time>
      </trkpt>
      <trkpt lat="50.59808" lon="4.52341">
        <ele>136</ele>
        <time>2015-06-01T09:27:18.000Z</time>
      </trkpt>
      <trkpt lat="50.59795" lon="4.52336">
        <ele>136</ele>
        <time>2015-06-01T09:27:27.000Z</time>
      </trkpt>
      <trkpt lat="50.59782" lon="4.5233">
        <ele>136</ele>
        <time>2015-06-01T09:27:36.000Z</time>
      </trkpt>
      <trkpt lat="50.59767" lon="4.52324">
        <ele>136.1</ele>
        <time>2015-06-01T09:27:46.000Z</time>
      </trkpt>
      <trkpt lat="50.59755" lon="4.52319">
        <ele>136.4</ele>
        <time>2015-06-01T09:27:54.000Z</time>
      </trkpt>
      <trkpt lat="50.59741" lon="4.52317">
        <ele>136.6</ele>
        <time>2015-06-01T09:28:04.000Z</time>
      </trkpt>
      <trkpt lat="50.59735" lon="4.52314">
        <ele>136.7</ele>
        <time>2015-06-01T09:28:08.000Z</time>
      </trkpt>
      <trkpt lat="50.59732" lon="4.52313">
        <ele>136.7</ele>
        <time>2015-06-01T09:28:11.000Z</time>
      </trkpt>
      <trkpt lat="50.59727" lon="4.52312">
        <ele>136.8</ele>
        <time>2015-06-01T09:28:16.000Z</time>
      </trkpt>
      <trkpt lat="50.59715" lon="4.52305">
        <ele>137</ele>
        <time>2015-06-01T09:28:23.000Z</time>
      </trkpt>
      <trkpt lat="50.59707" lon="4.52295">
        <ele>137.2</ele>
        <time>2015-06-01T09:28:30.000Z</time>
      </trkpt>
      <trkpt lat="50.59701" lon="4.52285">
        <ele>137.6</ele>
        <time>2015-06-01T09:28:35.000Z</time>
      </trkpt>
      <trkpt lat="50.59689" lon="4.52279">
        <ele>137.7</ele>
        <time>2015-06-01T09:28:43.000Z</time>
      </trkpt>
      <trkpt lat="50.59685" lon="4.5228">
        <ele>137.6</ele>
        <time>2015-06-01T09:28:46.000Z</time>
      </trkpt>
      <trkpt lat="50.59676" lon="4.52283">
        <ele>137.2</ele>
        <time>2015-06-01T09:28:52.000Z</time>
      </trkpt>
      <trkpt lat="50.59665" lon="4.52281">
        <ele>136.8</ele>
        <time>2015-06-01T09:29:00.000Z</time>
      </trkpt>
      <trkpt lat="50.59656" lon="4.52279">
        <ele>136.6</ele>
        <time>2015-06-01T09:29:08.000Z</time>
      </trkpt>
      <trkpt lat="50.59649" lon="4.52274">
        <ele>136.6</ele>
        <time>2015-06-01T09:29:14.000Z</time>
      </trkpt>
      <trkpt lat="50.59638" lon="4.52271">
        <ele>136.4</ele>
        <time>2015-06-01T09:29:20.000Z</time>
      </trkpt>
      <trkpt lat="50.59629" lon="4.5227">
        <ele>135.8</ele>
        <time>2015-06-01T09:29:26.000Z</time>
      </trkpt>
      <trkpt lat="50.59622" lon="4.52268">
        <ele>135.5</ele>
        <time>2015-06-01T09:29:31.000Z</time>
      </trkpt>
      <trkpt lat="50.59614" lon="4.52266">
        <ele>135.1</ele>
        <time>2015-06-01T09:29:36.000Z</time>
      </trkpt>
      <trkpt lat="50.59608" lon="4.52269">
        <ele>134.7</ele>
        <time>2015-06-01T09:29:40.000Z</time>
      </trkpt>
      <trkpt lat="50.59601" lon="4.52275">
        <ele>134.6</ele>
        <time>2015-06-01T09:29:46.000Z</time>
      </trkpt>
      <trkpt lat="50.59593" lon="4.52286">
        <ele>133.8</ele>
        <time>2015-06-01T09:29:53.000Z</time>
      </trkpt>
      <trkpt lat="50.5959" lon="4.52288">
        <ele>133.6</ele>
        <time>2015-06-01T09:29:55.000Z</time>
      </trkpt>
      <trkpt lat="50.5958" lon="4.52293">
        <ele>133.7</ele>
        <time>2015-06-01T09:30:01.000Z</time>
      </trkpt>
      <trkpt lat="50.59579" lon="4.52294">
        <ele>133.8</ele>
        <time>2015-06-01T09:30:02.000Z</time>
      </trkpt>
      <trkpt lat="50.59569" lon="4.52309">
        <ele>133.9</ele>
        <time>2015-06-01T09:30:09.000Z</time>
      </trkpt>
      <trkpt lat="50.59564" lon="4.5232">
        <ele>134.3</ele>
        <time>2015-06-01T09:30:14.000Z</time>
      </trkpt>
      <trkpt lat="50.59562" lon="4.5232">
        <ele>134.6</ele>
        <time>2015-06-01T09:30:19.000Z</time>
      </trkpt>
      <trkpt lat="50.59562" lon="4.5232">
        <ele>134.6</ele>
        <time>2015-06-01T09:30:20.000Z</time>
      </trkpt>
      <trkpt lat="50.59558" lon="4.52327">
        <ele>134.8</ele>
        <time>2015-06-01T09:30:25.000Z</time>
      </trkpt>
      <trkpt lat="50.59553" lon="4.52332">
        <ele>135</ele>
        <time>2015-06-01T09:30:28.000Z</time>
      </trkpt>
      <trkpt lat="50.59543" lon="4.52341">
        <ele>134.7</ele>
        <time>2015-06-01T09:30:35.000Z</time>
      </trkpt>
      <trkpt lat="50.59534" lon="4.5235">
        <ele>134.4</ele>
        <time>2015-06-01T09:30:43.000Z</time>
      </trkpt>
      <trkpt lat="50.59526" lon="4.52356">
        <ele>134.2</ele>
        <time>2015-06-01T09:30:49.000Z</time>
      </trkpt>
      <trkpt lat="50.59524" lon="4.52357">
        <ele>134.1</ele>
        <time>2015-06-01T09:30:51.000Z</time>
      </trkpt>
      <trkpt lat="50.59517" lon="4.52365">
        <ele>134</ele>
        <time>2015-06-01T09:30:56.000Z</time>
      </trkpt>
      <trkpt lat="50.59506" lon="4.52379">
        <ele>134</ele>
        <time>2015-06-01T09:31:03.000Z</time>
      </trkpt>
      <trkpt lat="50.59497" lon="4.52387">
        <ele>133.9</ele>
        <time>2015-06-01T09:31:09.000Z</time>
      </trkpt>
      <trkpt lat="50.59487" lon="4.52388">
        <ele>133.5</ele>
        <time>2015-06-01T09:31:15.000Z</time>
      </trkpt>
      <trkpt lat="50.59481" lon="4.52391">
        <ele>133.3</ele>
        <time>2015-06-01T09:31:20.000Z</time>
      </trkpt>
      <trkpt lat="50.59478" lon="4.52393">
        <ele>133.2</ele>
        <time>2015-06-01T09:31:24.000Z</time>
      </trkpt>
      <trkpt lat="50.59467" lon="4.52399">
        <ele>132.8</ele>
        <time>2015-06-01T09:31:31.000Z</time>
      </trkpt>
      <trkpt lat="50.59459" lon="4.52402">
        <ele>132.5</ele>
        <time>2015-06-01T09:31:37.000Z</time>
      </trkpt>
      <trkpt lat="50.59449" lon="4.52406">
        <ele>132.2</ele>
        <time>2015-06-01T09:31:44.000Z</time>
      </trkpt>
      <trkpt lat="50.5944" lon="4.5241">
        <ele>131.9</ele>
        <time>2015-06-01T09:31:50.000Z</time>
      </trkpt>
      <trkpt lat="50.59437" lon="4.52412">
        <ele>131.7</ele>
        <time>2015-06-01T09:31:52.000Z</time>
      </trkpt>
      <trkpt lat="50.59426" lon="4.52419">
        <ele>131.2</ele>
        <time>2015-06-01T09:31:58.000Z</time>
      </trkpt>
      <trkpt lat="50.59416" lon="4.52426">
        <ele>130.6</ele>
        <time>2015-06-01T09:32:06.000Z</time>
      </trkpt>
      <trkpt lat="50.59403" lon="4.52432">
        <ele>130.2</ele>
        <time>2015-06-01T09:32:13.000Z</time>
      </trkpt>
      <trkpt lat="50.59401" lon="4.52433">
        <ele>130.2</ele>
        <time>2015-06-01T09:32:15.000Z</time>
      </trkpt>
      <trkpt lat="50.59394" lon="4.5244">
        <ele>130</ele>
        <time>2015-06-01T09:32:21.000Z</time>
      </trkpt>
      <trkpt lat="50.59388" lon="4.52443">
        <ele>130</ele>
        <time>2015-06-01T09:32:27.000Z</time>
      </trkpt>
      <trkpt lat="50.59388" lon="4.52442">
        <ele>130</ele>
        <time>2015-06-01T09:32:37.000Z</time>
      </trkpt>
      <trkpt lat="50.59386" lon="4.52448">
        <ele>129.8</ele>
        <time>2015-06-01T09:32:54.000Z</time>
      </trkpt>
      <trkpt lat="50.59378" lon="4.52443">
        <ele>129.6</ele>
        <time>2015-06-01T09:33:01.000Z</time>
      </trkpt>
      <trkpt lat="50.59374" lon="4.52441">
        <ele>129.5</ele>
        <time>2015-06-01T09:33:05.000Z</time>
      </trkpt>
      <trkpt lat="50.59373" lon="4.5244">
        <ele>129.4</ele>
        <time>2015-06-01T09:33:06.000Z</time>
      </trkpt>
      <trkpt lat="50.5937" lon="4.52436">
        <ele>129.3</ele>
        <time>2015-06-01T09:33:11.000Z</time>
      </trkpt>
      <trkpt lat="50.59373" lon="4.52433">
        <ele>129.4</ele>
        <time>2015-06-01T09:33:16.000Z</time>
      </trkpt>
      <trkpt lat="50.59379" lon="4.52436">
        <ele>129.6</ele>
        <time>2015-06-01T09:33:21.000Z</time>
      </trkpt>
      <trkpt lat="50.59378" lon="4.52446">
        <ele>129.6</ele>
        <time>2015-06-01T09:33:26.000Z</time>
      </trkpt>
      <trkpt lat="50.59369" lon="4.52458">
        <ele>128.8</ele>
        <time>2015-06-01T09:33:33.000Z</time>
      </trkpt>
      <trkpt lat="50.59367" lon="4.52462">
        <ele>128.6</ele>
        <time>2015-06-01T09:33:35.000Z</time>
      </trkpt>
      <trkpt lat="50.59355" lon="4.52478">
        <ele>127.6</ele>
        <time>2015-06-01T09:33:44.000Z</time>
      </trkpt>
      <trkpt lat="50.59349" lon="4.52489">
        <ele>127</ele>
        <time>2015-06-01T09:33:49.000Z</time>
      </trkpt>
      <trkpt lat="50.59338" lon="4.52506">
        <ele>126.2</ele>
        <time>2015-06-01T09:33:58.000Z</time>
      </trkpt>
      <trkpt lat="50.5933" lon="4.52514">
        <ele>125.9</ele>
        <time>2015-06-01T09:34:04.000Z</time>
      </trkpt>
      <trkpt lat="50.59327" lon="4.5252">
        <ele>125.8</ele>
        <time>2015-06-01T09:34:07.000Z</time>
      </trkpt>
      <trkpt lat="50.59323" lon="4.52526">
        <ele>125.6</ele>
        <time>2015-06-01T09:34:11.000Z</time>
      </trkpt>
      <trkpt lat="50.59314" lon="4.52537">
        <ele>125</ele>
        <time>2015-06-01T09:34:18.000Z</time>
      </trkpt>
      <trkpt lat="50.59311" lon="4.5254">
        <ele>124.7</ele>
        <time>2015-06-01T09:34:20.000Z</time>
      </trkpt>
      <trkpt lat="50.59302" lon="4.52553">
        <ele>124</ele>
        <time>2015-06-01T09:34:27.000Z</time>
      </trkpt>
      <trkpt lat="50.59299" lon="4.52555">
        <ele>123.8</ele>
        <time>2015-06-01T09:34:29.000Z</time>
      </trkpt>
      <trkpt lat="50.59293" lon="4.52561">
        <ele>123.6</ele>
        <time>2015-06-01T09:34:33.000Z</time>
      </trkpt>
      <trkpt lat="50.59283" lon="4.52567">
        <ele>123.2</ele>
        <time>2015-06-01T09:34:41.000Z</time>
      </trkpt>
      <trkpt lat="50.5928" lon="4.52572">
        <ele>123.1</ele>
        <time>2015-06-01T09:34:44.000Z</time>
      </trkpt>
      <trkpt lat="50.59267" lon="4.52585">
        <ele>122.2</ele>
        <time>2015-06-01T09:34:54.000Z</time>
      </trkpt>
      <trkpt lat="50.59264" lon="4.52588">
        <ele>121.9</ele>
        <time>2015-06-01T09:34:57.000Z</time>
      </trkpt>
      <trkpt lat="50.59256" lon="4.52594">
        <ele>121.4</ele>
        <time>2015-06-01T09:35:03.000Z</time>
      </trkpt>
      <trkpt lat="50.59249" lon="4.52604">
        <ele>120.9</ele>
        <time>2015-06-01T09:35:09.000Z</time>
      </trkpt>
      <trkpt lat="50.59241" lon="4.52613">
        <ele>120.3</ele>
        <time>2015-06-01T09:35:15.000Z</time>
      </trkpt>
      <trkpt lat="50.59231" lon="4.52625">
        <ele>119.5</ele>
        <time>2015-06-01T09:35:24.000Z</time>
      </trkpt>
      <trkpt lat="50.59225" lon="4.52633">
        <ele>119.1</ele>
        <time>2015-06-01T09:35:30.000Z</time>
      </trkpt>
      <trkpt lat="50.59219" lon="4.52645">
        <ele>118.5</ele>
        <time>2015-06-01T09:35:38.000Z</time>
      </trkpt>
      <trkpt lat="50.59212" lon="4.52652">
        <ele>118</ele>
        <time>2015-06-01T09:35:44.000Z</time>
      </trkpt>
      <trkpt lat="50.59203" lon="4.52663">
        <ele>117.8</ele>
        <time>2015-06-01T09:35:51.000Z</time>
      </trkpt>
      <trkpt lat="50.59192" lon="4.5267">
        <ele>117.5</ele>
        <time>2015-06-01T09:35:57.000Z</time>
      </trkpt>
      <trkpt lat="50.59183" lon="4.52679">
        <ele>115.8</ele>
        <time>2015-06-01T09:36:04.000Z</time>
      </trkpt>
      <trkpt lat="50.59176" lon="4.52685">
        <ele>114.7</ele>
        <time>2015-06-01T09:36:09.000Z</time>
      </trkpt>
      <trkpt lat="50.59171" lon="4.52691">
        <ele>113.7</ele>
        <time>2015-06-01T09:36:15.000Z</time>
      </trkpt>
      <trkpt lat="50.59169" lon="4.52694">
        <ele>113.2</ele>
        <time>2015-06-01T09:36:17.000Z</time>
      </trkpt>
      <trkpt lat="50.59163" lon="4.52701">
        <ele>110.8</ele>
        <time>2015-06-01T09:36:23.000Z</time>
      </trkpt>
      <trkpt lat="50.59158" lon="4.52706">
        <ele>109.1</ele>
        <time>2015-06-01T09:36:30.000Z</time>
      </trkpt>
      <trkpt lat="50.59153" lon="4.52712">
        <ele>107.3</ele>
        <time>2015-06-01T09:36:35.000Z</time>
      </trkpt>
      <trkpt lat="50.59145" lon="4.52718">
        <ele>105.7</ele>
        <time>2015-06-01T09:36:42.000Z</time>
      </trkpt>
      <trkpt lat="50.59142" lon="4.52723">
        <ele>104.5</ele>
        <time>2015-06-01T09:36:46.000Z</time>
      </trkpt>
      <trkpt lat="50.59138" lon="4.52728">
        <ele>102.6</ele>
        <time>2015-06-01T09:36:52.000Z</time>
      </trkpt>
      <trkpt lat="50.59132" lon="4.52733">
        <ele>99.7</ele>
        <time>2015-06-01T09:36:59.000Z</time>
      </trkpt>
      <trkpt lat="50.59131" lon="4.52733">
        <ele>99.5</ele>
        <time>2015-06-01T09:37:00.000Z</time>
      </trkpt>
      <trkpt lat="50.59125" lon="4.52728">
        <ele>100</ele>
        <time>2015-06-01T09:37:07.000Z</time>
      </trkpt>
      <trkpt lat="50.59122" lon="4.5272">
        <ele>101</ele>
        <time>2015-06-01T09:37:12.000Z</time>
      </trkpt>
      <trkpt lat="50.59118" lon="4.52716">
        <ele>100.7</ele>
        <time>2015-06-01T09:37:17.000Z</time>
      </trkpt>
      <trkpt lat="50.59113" lon="4.52711">
        <ele>100.2</ele>
        <time>2015-06-01T09:37:22.000Z</time>
      </trkpt>
      <trkpt lat="50.5911" lon="4.5271">
        <ele>99.7</ele>
        <time>2015-06-01T09:37:24.000Z</time>
      </trkpt>
      <trkpt lat="50.59103" lon="4.52706">
        <ele>99.2</ele>
        <time>2015-06-01T09:37:33.000Z</time>
      </trkpt>
      <trkpt lat="50.59101" lon="4.52707">
        <ele>98.8</ele>
        <time>2015-06-01T09:37:36.000Z</time>
      </trkpt>
      <trkpt lat="50.59093" lon="4.52712">
        <ele>97.5</ele>
        <time>2015-06-01T09:37:44.000Z</time>
      </trkpt>
      <trkpt lat="50.5909" lon="4.52713">
        <ele>97.1</ele>
        <time>2015-06-01T09:37:47.000Z</time>
      </trkpt>
      <trkpt lat="50.59082" lon="4.52723">
        <ele>96</ele>
        <time>2015-06-01T09:37:55.000Z</time>
      </trkpt>
      <trkpt lat="50.59073" lon="4.52732">
        <ele>95.5</ele>
        <time>2015-06-01T09:38:03.000Z</time>
      </trkpt>
      <trkpt lat="50.59071" lon="4.52733">
        <ele>95.4</ele>
        <time>2015-06-01T09:38:04.000Z</time>
      </trkpt>
      <trkpt lat="50.59068" lon="4.52747">
        <ele>94.3</ele>
        <time>2015-06-01T09:38:12.000Z</time>
      </trkpt>
      <trkpt lat="50.59065" lon="4.52761">
        <ele>94.2</ele>
        <time>2015-06-01T09:38:19.000Z</time>
      </trkpt>
      <trkpt lat="50.5906" lon="4.52777">
        <ele>94.5</ele>
        <time>2015-06-01T09:38:27.000Z</time>
      </trkpt>
      <trkpt lat="50.59054" lon="4.52788">
        <ele>95.5</ele>
        <time>2015-06-01T09:38:33.000Z</time>
      </trkpt>
      <trkpt lat="50.59048" lon="4.52801">
        <ele>97</ele>
        <time>2015-06-01T09:38:40.000Z</time>
      </trkpt>
      <trkpt lat="50.59039" lon="4.52812">
        <ele>98.9</ele>
        <time>2015-06-01T09:38:47.000Z</time>
      </trkpt>
      <trkpt lat="50.59035" lon="4.52833">
        <ele>98.4</ele>
        <time>2015-06-01T09:38:56.000Z</time>
      </trkpt>
      <trkpt lat="50.59035" lon="4.52847">
        <ele>97.2</ele>
        <time>2015-06-01T09:39:02.000Z</time>
      </trkpt>
      <trkpt lat="50.59034" lon="4.52854">
        <ele>96.7</ele>
        <time>2015-06-01T09:39:05.000Z</time>
      </trkpt>
      <trkpt lat="50.59032" lon="4.52862">
        <ele>96.2</ele>
        <time>2015-06-01T09:39:09.000Z</time>
      </trkpt>
      <trkpt lat="50.59034" lon="4.5287">
        <ele>95.1</ele>
        <time>2015-06-01T09:39:12.000Z</time>
      </trkpt>
      <trkpt lat="50.59029" lon="4.52879">
        <ele>94.3</ele>
        <time>2015-06-01T09:39:17.000Z</time>
      </trkpt>
      <trkpt lat="50.59027" lon="4.52884">
        <ele>94</ele>
        <time>2015-06-01T09:39:19.000Z</time>
      </trkpt>
      <trkpt lat="50.59025" lon="4.5289">
        <ele>93.9</ele>
        <time>2015-06-01T09:39:21.000Z</time>
      </trkpt>
      <trkpt lat="50.59023" lon="4.52902">
        <ele>94.3</ele>
        <time>2015-06-01T09:39:27.000Z</time>
      </trkpt>
      <trkpt lat="50.59023" lon="4.52907">
        <ele>94.2</ele>
        <time>2015-06-01T09:39:29.000Z</time>
      </trkpt>
      <trkpt lat="50.59021" lon="4.52921">
        <ele>93.9</ele>
        <time>2015-06-01T09:39:36.000Z</time>
      </trkpt>
      <trkpt lat="50.5902" lon="4.52923">
        <ele>93.9</ele>
        <time>2015-06-01T09:39:37.000Z</time>
      </trkpt>
      <trkpt lat="50.59014" lon="4.52935">
        <ele>93.5</ele>
        <time>2015-06-01T09:39:44.000Z</time>
      </trkpt>
      <trkpt lat="50.59013" lon="4.52936">
        <ele>93.5</ele>
        <time>2015-06-01T09:39:45.000Z</time>
      </trkpt>
      <trkpt lat="50.59004" lon="4.52939">
        <ele>93.6</ele>
        <time>2015-06-01T09:39:52.000Z</time>
      </trkpt>
      <trkpt lat="50.58998" lon="4.52942">
        <ele>93.8</ele>
        <time>2015-06-01T09:39:56.000Z</time>
      </trkpt>
      <trkpt lat="50.58988" lon="4.52946">
        <ele>94.7</ele>
        <time>2015-06-01T09:40:03.000Z</time>
      </trkpt>
      <trkpt lat="50.58984" lon="4.52947">
        <ele>95.1</ele>
        <time>2015-06-01T09:40:05.000Z</time>
      </trkpt>
      <trkpt lat="50.58966" lon="4.52953">
        <ele>96</ele>
        <time>2015-06-01T09:40:15.000Z</time>
      </trkpt>
      <trkpt lat="50.58955" lon="4.52953">
        <ele>96.7</ele>
        <time>2015-06-01T09:40:21.000Z</time>
      </trkpt>
      <trkpt lat="50.58954" lon="4.52955">
        <ele>96.3</ele>
        <time>2015-06-01T09:40:22.000Z</time>
      </trkpt>
      <trkpt lat="50.58951" lon="4.52978">
        <ele>93.2</ele>
        <time>2015-06-01T09:40:31.000Z</time>
      </trkpt>
      <trkpt lat="50.58951" lon="4.52992">
        <ele>93.5</ele>
        <time>2015-06-01T09:40:36.000Z</time>
      </trkpt>
      <trkpt lat="50.58947" lon="4.53005">
        <ele>93.9</ele>
        <time>2015-06-01T09:40:43.000Z</time>
      </trkpt>
      <trkpt lat="50.58945" lon="4.53009">
        <ele>94</ele>
        <time>2015-06-01T09:40:46.000Z</time>
      </trkpt>
      <trkpt lat="50.58941" lon="4.53022">
        <ele>93.7</ele>
        <time>2015-06-01T09:40:52.000Z</time>
      </trkpt>
      <trkpt lat="50.58937" lon="4.53034">
        <ele>93.4</ele>
        <time>2015-06-01T09:40:58.000Z</time>
      </trkpt>
      <trkpt lat="50.5893" lon="4.53043">
        <ele>93.3</ele>
        <time>2015-06-01T09:41:05.000Z</time>
      </trkpt>
      <trkpt lat="50.58918" lon="4.53043">
        <ele>93.1</ele>
        <time>2015-06-01T09:41:13.000Z</time>
      </trkpt>
      <trkpt lat="50.58907" lon="4.53039">
        <ele>93.2</ele>
        <time>2015-06-01T09:41:22.000Z</time>
      </trkpt>
      <trkpt lat="50.58895" lon="4.53043">
        <ele>93.8</ele>
        <time>2015-06-01T09:41:31.000Z</time>
      </trkpt>
      <trkpt lat="50.58888" lon="4.53038">
        <ele>94</ele>
        <time>2015-06-01T09:42:46.000Z</time>
      </trkpt>
      <trkpt lat="50.58887" lon="4.53041">
        <ele>94</ele>
        <time>2015-06-01T09:42:55.000Z</time>
      </trkpt>
    </trkseg>
  </trk>
</gpx>